DAL19 KLAX-YMML
Flight info
| Callsign | DAL19 |
|---|---|
| Flight time | N/A |
| Altitude | 34000 |
| Route | SUMMR2 FICKY B581 WAYSE/N0501F360 B581 GOMIK/N0493F380 B581 NN A579 PUPEX/N0487F400 A579 UPSAD DCT ABARB DCT RIKNI DCT OMLAV Q15 WOL H65 LEECE Q29 BOOIN |
| Aircraft | A359/H-SDE2E3GHIJ1J3J4J5LM1ORWXY/LB1D1 |
Departure
| Time | 2026-05-06 05:51 |
|---|---|
| Airport | Los Angeles International Airport (KLAX) |
Arrival
| Time | N/A |
|---|---|
| Airport | Melbourne Airport (YMML) |
| Time | Latitude | Longitude | Altitude | Speed | Heading |
|---|---|---|---|---|---|
| 2026-05-06 05:21 | 33.94531 | -118.40800 | 80 ft | 0 kts | 93° |
| 2026-05-06 05:36 | 33.94532 | -118.40804 | 99 ft | 3 kts | 93° |
| 2026-05-06 05:36 | 33.94533 | -118.40829 | 100 ft | 4 kts | 89° |
| 2026-05-06 05:36 | 33.94527 | -118.40858 | 96 ft | 4 kts | 48° |
| 2026-05-06 05:37 | 33.94508 | -118.40875 | 97 ft | 2 kts | 24° |
| 2026-05-06 05:37 | 33.94527 | -118.40868 | 98 ft | 4 kts | 5° |
| 2026-05-06 05:37 | 33.94537 | -118.40870 | 98 ft | 0 kts | 353° |
| 2026-05-06 05:42 | 33.94541 | -118.40870 | 99 ft | 2 kts | 353° |
| 2026-05-06 05:42 | 33.94577 | -118.40884 | 101 ft | 9 kts | 340° |
| 2026-05-06 05:42 | 33.94650 | -118.40903 | 100 ft | 11 kts | 351° |
| 2026-05-06 05:42 | 33.94726 | -118.40908 | 101 ft | 11 kts | 9° |
| 2026-05-06 05:43 | 33.94796 | -118.40883 | 102 ft | 10 kts | 19° |
| 2026-05-06 05:43 | 33.94838 | -118.40814 | 101 ft | 14 kts | 75° |
| 2026-05-06 05:43 | 33.94856 | -118.40672 | 100 ft | 21 kts | 83° |
| 2026-05-06 05:43 | 33.94874 | -118.40492 | 103 ft | 22 kts | 83° |
| 2026-05-06 05:44 | 33.94892 | -118.40315 | 102 ft | 21 kts | 83° |
| 2026-05-06 05:44 | 33.94909 | -118.40145 | 101 ft | 18 kts | 83° |
| 2026-05-06 05:44 | 33.94923 | -118.40013 | 100 ft | 14 kts | 83° |
| 2026-05-06 05:44 | 33.94946 | -118.39937 | 101 ft | 1 kts | 47° |
| 2026-05-06 05:50 | 33.94956 | -118.39927 | 103 ft | 7 kts | 38° |
| 2026-05-06 05:50 | 33.95028 | -118.39933 | 101 ft | 9 kts | 311° |
| 2026-05-06 05:50 | 33.95036 | -118.40003 | 102 ft | 8 kts | 266° |
| 2026-05-06 05:50 | 33.95022 | -118.40153 | 105 ft | 44 kts | 264° |
| 2026-05-06 05:51 | 33.94956 | -118.40806 | 104 ft | 112 kts | 263° |
| 2026-05-06 05:51 | 33.94832 | -118.41978 | 105 ft | 169 kts | 262° |
| 2026-05-06 05:51 | 33.94667 | -118.43477 | 629 ft | 180 kts | 262° |
| 2026-05-06 05:51 | 33.94530 | -118.44911 | 1456 ft | 178 kts | 263° |
| 2026-05-06 05:52 | 33.94382 | -118.46471 | 1808 ft | 189 kts | 263° |
| 2026-05-06 05:52 | 33.94273 | -118.48113 | 1966 ft | 205 kts | 268° |
| 2026-05-06 05:52 | 33.94229 | -118.49866 | 2148 ft | 220 kts | 269° |
| 2026-05-06 05:52 | 33.94177 | -118.51784 | 2273 ft | 239 kts | 266° |
| 2026-05-06 05:53 | 33.94030 | -118.53836 | 2549 ft | 251 kts | 264° |
| 2026-05-06 05:53 | 33.93851 | -118.55946 | 2996 ft | 256 kts | 264° |
| 2026-05-06 05:53 | 33.93674 | -118.58080 | 3526 ft | 256 kts | 264° |
| 2026-05-06 05:53 | 33.93501 | -118.60225 | 4024 ft | 258 kts | 264° |
| 2026-05-06 05:54 | 33.93327 | -118.62394 | 4458 ft | 263 kts | 264° |
| 2026-05-06 05:54 | 33.93153 | -118.64589 | 4948 ft | 264 kts | 264° |
| 2026-05-06 05:54 | 33.92983 | -118.66809 | 5414 ft | 267 kts | 265° |
| 2026-05-06 05:54 | 33.92811 | -118.69020 | 5862 ft | 271 kts | 265° |
| 2026-05-06 05:55 | 33.92634 | -118.71289 | 6370 ft | 273 kts | 265° |
| 2026-05-06 05:55 | 33.92455 | -118.73574 | 6835 ft | 276 kts | 265° |
| 2026-05-06 05:55 | 33.92274 | -118.75895 | 7268 ft | 281 kts | 265° |
| 2026-05-06 05:55 | 33.92089 | -118.78257 | 7703 ft | 286 kts | 266° |
| 2026-05-06 05:56 | 33.91901 | -118.80659 | 8157 ft | 290 kts | 266° |
| 2026-05-06 05:56 | 33.91739 | -118.83099 | 8596 ft | 295 kts | 270° |
| 2026-05-06 05:56 | 33.91752 | -118.85579 | 9075 ft | 298 kts | 274° |
| 2026-05-06 05:56 | 33.91828 | -118.88092 | 9538 ft | 302 kts | 275° |
| 2026-05-06 05:57 | 33.91909 | -118.90604 | 9989 ft | 307 kts | 275° |
| 2026-05-06 05:57 | 33.91992 | -118.93216 | 10259 ft | 318 kts | 275° |
| 2026-05-06 05:57 | 33.92075 | -118.95933 | 10446 ft | 332 kts | 275° |
| 2026-05-06 05:57 | 33.92160 | -118.98763 | 10655 ft | 345 kts | 274° |
| 2026-05-06 05:58 | 33.92057 | -119.01706 | 10818 ft | 361 kts | 260° |
| 2026-05-06 05:58 | 33.91242 | -119.04620 | 11010 ft | 374 kts | 248° |
| 2026-05-06 05:58 | 33.90176 | -119.07539 | 11211 ft | 386 kts | 247° |
| 2026-05-06 05:58 | 33.89063 | -119.10528 | 11391 ft | 397 kts | 247° |
| 2026-05-06 05:59 | 33.87940 | -119.13565 | 11633 ft | 405 kts | 247° |
| 2026-05-06 05:59 | 33.86796 | -119.16678 | 12046 ft | 409 kts | 247° |
| 2026-05-06 05:59 | 33.85647 | -119.19814 | 12504 ft | 411 kts | 247° |
| 2026-05-06 05:59 | 33.84494 | -119.22965 | 12951 ft | 412 kts | 248° |
| 2026-05-06 06:00 | 33.83338 | -119.26128 | 13377 ft | 415 kts | 248° |
| 2026-05-06 06:00 | 33.82170 | -119.29322 | 13755 ft | 418 kts | 248° |
| 2026-05-06 06:00 | 33.80924 | -119.32494 | 14114 ft | 422 kts | 242° |
| 2026-05-06 06:00 | 33.79238 | -119.35395 | 14461 ft | 426 kts | 229° |
| 2026-05-06 06:01 | 33.77055 | -119.37819 | 14820 ft | 429 kts | 219° |
| 2026-05-06 06:01 | 33.74731 | -119.40013 | 15174 ft | 432 kts | 218° |
| 2026-05-06 06:01 | 33.72345 | -119.42226 | 15529 ft | 435 kts | 218° |
| 2026-05-06 06:01 | 33.69943 | -119.44459 | 15903 ft | 438 kts | 218° |
| 2026-05-06 06:02 | 33.67532 | -119.46708 | 16325 ft | 440 kts | 218° |
| 2026-05-06 06:02 | 33.65103 | -119.48976 | 16713 ft | 443 kts | 218° |
| 2026-05-06 06:02 | 33.62665 | -119.51255 | 17096 ft | 446 kts | 218° |
| 2026-05-06 06:02 | 33.60209 | -119.53549 | 17481 ft | 449 kts | 218° |
| 2026-05-06 06:03 | 33.57736 | -119.55859 | 17792 ft | 453 kts | 218° |
| 2026-05-06 06:03 | 33.55275 | -119.58158 | 18148 ft | 456 kts | 218° |
| 2026-05-06 06:03 | 33.52766 | -119.60499 | 18515 ft | 458 kts | 218° |
| 2026-05-06 06:03 | 33.50239 | -119.62855 | 18822 ft | 462 kts | 218° |
| 2026-05-06 06:04 | 33.47696 | -119.65224 | 19133 ft | 465 kts | 218° |
| 2026-05-06 06:04 | 33.45133 | -119.67610 | 19433 ft | 468 kts | 218° |
| 2026-05-06 06:04 | 33.42552 | -119.70011 | 19759 ft | 471 kts | 218° |
| 2026-05-06 06:04 | 33.39959 | -119.72421 | 20130 ft | 473 kts | 218° |
| 2026-05-06 06:05 | 33.37348 | -119.74846 | 20462 ft | 477 kts | 218° |
| 2026-05-06 06:05 | 33.34718 | -119.77288 | 20786 ft | 480 kts | 218° |
| 2026-05-06 06:05 | 33.32109 | -119.79708 | 21118 ft | 483 kts | 218° |
| 2026-05-06 06:05 | 33.29443 | -119.82179 | 21453 ft | 486 kts | 218° |
| 2026-05-06 06:06 | 33.26759 | -119.84664 | 21691 ft | 492 kts | 218° |
| 2026-05-06 06:06 | 33.24042 | -119.87179 | 21968 ft | 496 kts | 218° |
| 2026-05-06 06:06 | 33.21305 | -119.89708 | 22324 ft | 498 kts | 218° |
| 2026-05-06 06:06 | 33.18557 | -119.92247 | 22661 ft | 502 kts | 218° |
| 2026-05-06 06:07 | 33.15784 | -119.94805 | 23009 ft | 505 kts | 218° |
| 2026-05-06 06:07 | 33.13001 | -119.97372 | 23333 ft | 508 kts | 218° |
| 2026-05-06 06:07 | 33.10204 | -119.99948 | 23801 ft | 507 kts | 218° |
| 2026-05-06 06:07 | 33.07404 | -120.02526 | 24150 ft | 509 kts | 218° |
| 2026-05-06 06:08 | 33.04635 | -120.05073 | 24414 ft | 512 kts | 218° |
| 2026-05-06 06:08 | 33.01809 | -120.07671 | 24718 ft | 514 kts | 218° |
| 2026-05-06 06:08 | 32.98972 | -120.10277 | 25014 ft | 516 kts | 218° |
| 2026-05-06 06:08 | 32.96121 | -120.12893 | 25249 ft | 519 kts | 219° |
| 2026-05-06 06:09 | 32.93255 | -120.15522 | 25488 ft | 522 kts | 219° |
| 2026-05-06 06:09 | 32.90372 | -120.18163 | 25778 ft | 524 kts | 219° |
| 2026-05-06 06:09 | 32.87476 | -120.20813 | 26070 ft | 526 kts | 218° |
| 2026-05-06 06:09 | 32.84573 | -120.23468 | 26351 ft | 528 kts | 218° |
| 2026-05-06 06:10 | 32.81653 | -120.26135 | 26644 ft | 530 kts | 219° |
| 2026-05-06 06:10 | 32.78787 | -120.28750 | 27259 ft | 522 kts | 220° |
| 2026-05-06 06:10 | 32.75911 | -120.31373 | 27673 ft | 522 kts | 220° |
| 2026-05-06 06:10 | 32.73019 | -120.34011 | 27832 ft | 526 kts | 220° |
| 2026-05-06 06:11 | 32.70114 | -120.36658 | 28031 ft | 528 kts | 220° |
| 2026-05-06 06:11 | 32.67188 | -120.39321 | 28269 ft | 530 kts | 220° |
| 2026-05-06 06:11 | 32.64258 | -120.41985 | 28464 ft | 532 kts | 220° |
| 2026-05-06 06:11 | 32.61315 | -120.44659 | 28698 ft | 534 kts | 220° |
| 2026-05-06 06:12 | 32.58360 | -120.47344 | 28923 ft | 535 kts | 220° |
| 2026-05-06 06:12 | 32.55447 | -120.49989 | 29236 ft | 534 kts | 220° |
| 2026-05-06 06:12 | 32.52497 | -120.52662 | 29583 ft | 533 kts | 220° |
| 2026-05-06 06:12 | 32.49554 | -120.55326 | 29987 ft | 529 kts | 220° |
| 2026-05-06 06:13 | 32.46662 | -120.57941 | 30706 ft | 519 kts | 220° |
| 2026-05-06 06:13 | 32.43798 | -120.60532 | 30961 ft | 519 kts | 220° |
| 2026-05-06 06:13 | 32.38044 | -120.65735 | 31240 ft | 522 kts | 220° |
| 2026-05-06 06:14 | 32.35150 | -120.68347 | 31443 ft | 521 kts | 220° |
| 2026-05-06 06:14 | 32.32270 | -120.70944 | 31642 ft | 521 kts | 220° |
| 2026-05-06 06:14 | 32.29426 | -120.73507 | 31832 ft | 521 kts | 220° |
| 2026-05-06 06:14 | 32.26540 | -120.76105 | 32025 ft | 521 kts | 220° |
| 2026-05-06 06:15 | 32.23659 | -120.78697 | 32210 ft | 521 kts | 220° |
| 2026-05-06 06:15 | 32.20774 | -120.81290 | 32382 ft | 521 kts | 220° |
| 2026-05-06 06:15 | 32.17892 | -120.83876 | 32708 ft | 516 kts | 221° |
| 2026-05-06 06:15 | 32.15068 | -120.86408 | 33277 ft | 508 kts | 221° |
| 2026-05-06 06:16 | 32.12251 | -120.88934 | 33394 ft | 509 kts | 220° |
| 2026-05-06 06:16 | 32.09424 | -120.91469 | 33420 ft | 511 kts | 220° |
| 2026-05-06 06:16 | 32.06596 | -120.94002 | 33543 ft | 512 kts | 220° |
| 2026-05-06 06:16 | 32.03795 | -120.96508 | 33643 ft | 512 kts | 220° |
| 2026-05-06 06:17 | 31.98098 | -121.01599 | 33780 ft | 515 kts | 220° |
| 2026-05-06 06:17 | 31.95248 | -121.04142 | 33926 ft | 514 kts | 220° |
| 2026-05-06 06:17 | 31.92395 | -121.06685 | 34060 ft | 514 kts | 220° |
| 2026-05-06 06:18 | 31.86676 | -121.11779 | 34139 ft | 518 kts | 220° |
| 2026-05-06 06:18 | 31.80949 | -121.16872 | 34151 ft | 521 kts | 220° |
| 2026-05-06 06:19 | 31.75168 | -121.22003 | 34151 ft | 520 kts | 220° |
| 2026-05-06 06:19 | 31.69387 | -121.27126 | 34146 ft | 521 kts | 220° |
| 2026-05-06 06:20 | 31.63604 | -121.32244 | 34149 ft | 521 kts | 220° |
| 2026-05-06 06:20 | 31.57912 | -121.37392 | 34139 ft | 519 kts | 225° |
| 2026-05-06 06:21 | 31.53398 | -121.43776 | 34155 ft | 503 kts | 241° |
| 2026-05-06 06:21 | 31.49803 | -121.50764 | 34153 ft | 500 kts | 243° |
| 2026-05-06 06:22 | 31.46318 | -121.57832 | 34157 ft | 501 kts | 243° |
| 2026-05-06 06:22 | 31.42803 | -121.64890 | 34157 ft | 502 kts | 243° |
| 2026-05-06 06:23 | 31.39275 | -121.71888 | 34156 ft | 502 kts | 243° |
| 2026-05-06 06:23 | 31.35710 | -121.78917 | 34157 ft | 503 kts | 243° |
| 2026-05-06 06:24 | 31.32137 | -121.85951 | 34161 ft | 503 kts | 242° |
| 2026-05-06 06:24 | 31.28578 | -121.92949 | 34162 ft | 504 kts | 242° |
| 2026-05-06 06:25 | 31.24992 | -121.99986 | 34157 ft | 504 kts | 242° |
| 2026-05-06 06:26 | 31.19609 | -122.10527 | 34153 ft | 504 kts | 242° |
| 2026-05-06 06:26 | 31.16004 | -122.17571 | 34156 ft | 506 kts | 242° |
| 2026-05-06 06:27 | 31.12416 | -122.24569 | 34162 ft | 506 kts | 242° |
| 2026-05-06 06:27 | 31.08800 | -122.31607 | 34165 ft | 506 kts | 242° |
| 2026-05-06 06:28 | 31.05185 | -122.38631 | 34163 ft | 503 kts | 242° |
| 2026-05-06 06:28 | 31.01589 | -122.45603 | 34164 ft | 501 kts | 242° |
| 2026-05-06 06:29 | 30.98020 | -122.52516 | 34168 ft | 501 kts | 242° |
| 2026-05-06 06:29 | 30.94425 | -122.59465 | 34167 ft | 501 kts | 242° |
| 2026-05-06 06:30 | 30.90821 | -122.66418 | 34167 ft | 502 kts | 242° |
| 2026-05-06 06:30 | 30.87205 | -122.73383 | 34173 ft | 503 kts | 242° |
| 2026-05-06 06:31 | 30.83607 | -122.80300 | 34170 ft | 503 kts | 242° |
| 2026-05-06 06:31 | 30.79985 | -122.87250 | 34173 ft | 503 kts | 242° |
| 2026-05-06 06:32 | 30.76351 | -122.94210 | 34172 ft | 504 kts | 242° |
| 2026-05-06 06:32 | 30.72711 | -123.01172 | 34176 ft | 504 kts | 241° |
| 2026-05-06 06:33 | 30.69067 | -123.08127 | 34178 ft | 504 kts | 241° |
| 2026-05-06 06:33 | 30.65444 | -123.15034 | 34176 ft | 504 kts | 241° |
| 2026-05-06 06:34 | 30.61757 | -123.21961 | 34174 ft | 505 kts | 241° |
| 2026-05-06 06:34 | 30.58046 | -123.28886 | 34181 ft | 505 kts | 241° |
| 2026-05-06 06:35 | 30.54337 | -123.35806 | 34176 ft | 504 kts | 241° |
| 2026-05-06 06:35 | 30.50675 | -123.42638 | 34182 ft | 501 kts | 241° |
| 2026-05-06 06:36 | 30.46998 | -123.49493 | 34181 ft | 501 kts | 241° |
| 2026-05-06 06:36 | 30.43317 | -123.56345 | 34181 ft | 501 kts | 241° |
| 2026-05-06 06:37 | 30.39631 | -123.63191 | 34181 ft | 501 kts | 240° |
| 2026-05-06 06:37 | 30.35964 | -123.69991 | 34174 ft | 501 kts | 240° |
| 2026-05-06 06:38 | 30.32270 | -123.76829 | 34179 ft | 501 kts | 240° |
| 2026-05-06 06:38 | 30.28571 | -123.83666 | 34184 ft | 501 kts | 240° |
| 2026-05-06 06:39 | 30.24864 | -123.90504 | 34184 ft | 502 kts | 240° |
| 2026-05-06 06:39 | 30.21151 | -123.97340 | 34179 ft | 502 kts | 240° |
| 2026-05-06 06:40 | 30.17463 | -124.04122 | 34188 ft | 502 kts | 240° |
| 2026-05-06 06:40 | 30.13745 | -124.10944 | 34189 ft | 502 kts | 240° |
| 2026-05-06 06:41 | 30.10027 | -124.17757 | 34190 ft | 502 kts | 240° |
| 2026-05-06 06:41 | 30.06301 | -124.24573 | 34187 ft | 502 kts | 240° |
| 2026-05-06 06:42 | 30.02600 | -124.31328 | 34189 ft | 499 kts | 241° |
| 2026-05-06 06:42 | 29.98900 | -124.38070 | 34191 ft | 496 kts | 241° |
| 2026-05-06 06:43 | 29.95212 | -124.44785 | 34194 ft | 496 kts | 241° |
| 2026-05-06 06:43 | 29.91514 | -124.51505 | 34191 ft | 495 kts | 241° |
| 2026-05-06 06:44 | 29.87848 | -124.58154 | 34195 ft | 495 kts | 241° |
| 2026-05-06 06:44 | 29.84153 | -124.64846 | 34197 ft | 495 kts | 241° |
| 2026-05-06 06:45 | 29.80456 | -124.71530 | 34195 ft | 495 kts | 241° |
| 2026-05-06 06:45 | 29.76757 | -124.78207 | 34197 ft | 494 kts | 241° |
| 2026-05-06 06:46 | 29.73061 | -124.84867 | 34203 ft | 493 kts | 241° |
| 2026-05-06 06:46 | 29.69389 | -124.91472 | 34203 ft | 494 kts | 241° |
| 2026-05-06 06:47 | 29.65689 | -124.98118 | 34203 ft | 494 kts | 241° |
| 2026-05-06 06:47 | 29.61987 | -125.04757 | 34201 ft | 492 kts | 241° |
| 2026-05-06 06:48 | 29.58290 | -125.11374 | 34200 ft | 492 kts | 241° |
| 2026-05-06 06:48 | 29.54594 | -125.17980 | 34202 ft | 491 kts | 241° |
| 2026-05-06 06:49 | 29.50922 | -125.24530 | 34211 ft | 490 kts | 241° |
| 2026-05-06 06:49 | 29.47248 | -125.31073 | 34207 ft | 486 kts | 242° |
| 2026-05-06 06:50 | 29.43584 | -125.37593 | 34201 ft | 486 kts | 242° |
| 2026-05-06 06:50 | 29.39916 | -125.44110 | 34201 ft | 486 kts | 242° |
| 2026-05-06 06:51 | 29.36271 | -125.50575 | 34184 ft | 486 kts | 242° |
| 2026-05-06 06:51 | 29.32610 | -125.57054 | 34211 ft | 483 kts | 242° |
| 2026-05-06 06:52 | 29.28955 | -125.63514 | 34211 ft | 483 kts | 242° |
| 2026-05-06 06:52 | 29.25301 | -125.69964 | 34212 ft | 483 kts | 242° |
| 2026-05-06 06:53 | 29.21667 | -125.76368 | 34190 ft | 482 kts | 242° |
| 2026-05-06 06:53 | 29.18020 | -125.82782 | 34211 ft | 479 kts | 242° |
| 2026-05-06 06:54 | 29.14383 | -125.89171 | 34208 ft | 479 kts | 242° |
| 2026-05-06 06:54 | 29.10747 | -125.95551 | 34212 ft | 479 kts | 242° |
| 2026-05-06 06:55 | 29.07102 | -126.01935 | 34213 ft | 479 kts | 242° |
| 2026-05-06 06:55 | 29.03480 | -126.08268 | 34210 ft | 479 kts | 242° |
| 2026-05-06 06:56 | 28.99834 | -126.14631 | 34200 ft | 476 kts | 242° |
| 2026-05-06 06:56 | 28.96231 | -126.20905 | 34215 ft | 470 kts | 242° |
| 2026-05-06 06:57 | 28.92650 | -126.27140 | 34210 ft | 469 kts | 242° |
| 2026-05-06 06:57 | 28.89106 | -126.33302 | 34215 ft | 467 kts | 242° |
| 2026-05-06 06:58 | 28.85544 | -126.39487 | 34214 ft | 466 kts | 242° |
| 2026-05-06 06:58 | 28.81978 | -126.45669 | 34218 ft | 467 kts | 242° |
| 2026-05-06 06:59 | 28.78409 | -126.51844 | 34205 ft | 466 kts | 243° |
| 2026-05-06 06:59 | 28.74878 | -126.57939 | 34220 ft | 462 kts | 243° |
| 2026-05-06 07:00 | 28.71345 | -126.64036 | 34220 ft | 461 kts | 243° |
| 2026-05-06 07:00 | 28.67813 | -126.70126 | 34222 ft | 461 kts | 243° |
| 2026-05-06 07:01 | 28.64274 | -126.76215 | 34211 ft | 461 kts | 243° |
| 2026-05-06 07:01 | 28.60766 | -126.82239 | 34220 ft | 459 kts | 243° |
| 2026-05-06 07:02 | 28.57237 | -126.88292 | 34219 ft | 459 kts | 243° |
| 2026-05-06 07:02 | 28.53709 | -126.94338 | 34219 ft | 459 kts | 243° |
| 2026-05-06 07:03 | 28.50176 | -127.00383 | 34174 ft | 458 kts | 243° |
| 2026-05-06 07:03 | 28.46680 | -127.06356 | 34222 ft | 456 kts | 243° |
| 2026-05-06 07:04 | 28.43165 | -127.12348 | 34223 ft | 455 kts | 243° |
| 2026-05-06 07:04 | 28.39654 | -127.18329 | 34223 ft | 455 kts | 243° |
| 2026-05-06 07:05 | 28.36172 | -127.24253 | 34202 ft | 455 kts | 243° |
| 2026-05-06 07:05 | 28.32672 | -127.30199 | 34223 ft | 457 kts | 242° |
| 2026-05-06 07:06 | 28.29136 | -127.36196 | 34225 ft | 457 kts | 242° |
| 2026-05-06 07:06 | 28.25601 | -127.42184 | 34225 ft | 457 kts | 242° |
| 2026-05-06 07:07 | 28.22059 | -127.48175 | 34210 ft | 457 kts | 242° |
| 2026-05-06 07:07 | 28.18513 | -127.54165 | 34227 ft | 458 kts | 242° |
| 2026-05-06 07:08 | 28.14985 | -127.60114 | 34225 ft | 458 kts | 242° |
| 2026-05-06 07:08 | 28.11429 | -127.66104 | 34225 ft | 458 kts | 242° |
| 2026-05-06 07:09 | 28.07873 | -127.72086 | 34201 ft | 458 kts | 242° |
| 2026-05-06 07:09 | 28.04308 | -127.78075 | 34230 ft | 459 kts | 242° |
| 2026-05-06 07:10 | 28.00756 | -127.84033 | 34229 ft | 460 kts | 242° |
| 2026-05-06 07:10 | 27.97180 | -127.90025 | 34226 ft | 459 kts | 242° |
| 2026-05-06 07:11 | 27.93602 | -127.96009 | 34209 ft | 459 kts | 241° |
| 2026-05-06 07:11 | 27.90017 | -128.01996 | 34227 ft | 460 kts | 241° |
| 2026-05-06 07:12 | 27.86448 | -128.07949 | 34227 ft | 461 kts | 241° |
| 2026-05-06 07:12 | 27.82851 | -128.13941 | 34227 ft | 461 kts | 241° |
| 2026-05-06 07:13 | 27.79252 | -128.19927 | 34219 ft | 461 kts | 241° |
| 2026-05-06 07:13 | 27.75646 | -128.25918 | 34236 ft | 462 kts | 241° |
| 2026-05-06 07:14 | 27.72028 | -128.31919 | 34223 ft | 462 kts | 241° |
| 2026-05-06 07:14 | 27.68431 | -128.37878 | 34239 ft | 462 kts | 241° |
| 2026-05-06 07:15 | 27.64810 | -128.43868 | 34227 ft | 462 kts | 241° |
| 2026-05-06 07:15 | 27.61184 | -128.49859 | 34226 ft | 463 kts | 241° |
| 2026-05-06 07:16 | 27.57553 | -128.55849 | 34235 ft | 462 kts | 241° |
| 2026-05-06 07:16 | 27.53948 | -128.61788 | 34223 ft | 462 kts | 241° |
| 2026-05-06 07:17 | 27.50311 | -128.67773 | 34233 ft | 463 kts | 241° |
| 2026-05-06 07:17 | 27.46671 | -128.73755 | 34215 ft | 463 kts | 240° |
| 2026-05-06 07:18 | 27.43023 | -128.79740 | 34233 ft | 463 kts | 240° |
| 2026-05-06 07:18 | 27.39399 | -128.85677 | 34236 ft | 463 kts | 240° |
| 2026-05-06 07:19 | 27.35746 | -128.91656 | 34228 ft | 464 kts | 240° |
| 2026-05-06 07:19 | 27.32085 | -128.97640 | 34233 ft | 465 kts | 240° |
| 2026-05-06 07:20 | 27.28419 | -129.03621 | 34235 ft | 465 kts | 240° |
| 2026-05-06 07:20 | 27.24753 | -129.09597 | 34235 ft | 465 kts | 240° |
| 2026-05-06 07:21 | 27.21106 | -129.15532 | 34235 ft | 465 kts | 240° |
| 2026-05-06 07:21 | 27.17421 | -129.21522 | 34235 ft | 466 kts | 240° |
| 2026-05-06 07:22 | 27.13735 | -129.27505 | 34234 ft | 466 kts | 240° |
| 2026-05-06 07:22 | 27.10045 | -129.33485 | 34235 ft | 466 kts | 240° |
| 2026-05-06 07:23 | 27.06377 | -129.39425 | 34238 ft | 467 kts | 240° |
| 2026-05-06 07:23 | 27.02672 | -129.45415 | 34238 ft | 467 kts | 240° |
| 2026-05-06 07:24 | 26.98963 | -129.51403 | 34235 ft | 467 kts | 240° |
| 2026-05-06 07:24 | 26.95249 | -129.57390 | 34235 ft | 468 kts | 240° |
| 2026-05-06 07:25 | 26.91557 | -129.63336 | 34238 ft | 469 kts | 240° |
| 2026-05-06 07:25 | 26.87828 | -129.69332 | 34238 ft | 469 kts | 240° |
| 2026-05-06 07:26 | 26.84098 | -129.75322 | 34238 ft | 469 kts | 240° |
| 2026-05-06 07:26 | 26.80364 | -129.81309 | 34230 ft | 469 kts | 239° |
| 2026-05-06 07:27 | 26.76650 | -129.87259 | 34242 ft | 470 kts | 239° |
| 2026-05-06 07:27 | 26.72900 | -129.93257 | 34241 ft | 470 kts | 239° |
| 2026-05-06 07:28 | 26.69150 | -129.99246 | 34241 ft | 470 kts | 239° |
| 2026-05-06 07:28 | 26.63515 | -130.08232 | 34242 ft | 471 kts | 239° |
| 2026-05-06 07:29 | 26.59749 | -130.14229 | 34241 ft | 471 kts | 239° |
| 2026-05-06 07:29 | 26.56005 | -130.20181 | 34243 ft | 471 kts | 239° |
| 2026-05-06 07:30 | 26.52270 | -130.26111 | 34236 ft | 471 kts | 239° |
| 2026-05-06 07:30 | 26.48489 | -130.32108 | 34239 ft | 473 kts | 239° |
| 2026-05-06 07:31 | 26.44698 | -130.38114 | 34230 ft | 474 kts | 238° |
| 2026-05-06 07:31 | 26.40897 | -130.44126 | 34234 ft | 474 kts | 238° |
| 2026-05-06 07:32 | 26.37116 | -130.50096 | 34242 ft | 475 kts | 238° |
| 2026-05-06 07:32 | 26.33307 | -130.56104 | 34243 ft | 475 kts | 238° |
| 2026-05-06 07:33 | 26.29486 | -130.62124 | 34240 ft | 475 kts | 238° |
| 2026-05-06 07:33 | 26.25665 | -130.68135 | 34237 ft | 475 kts | 238° |
| 2026-05-06 07:34 | 26.21868 | -130.74101 | 34245 ft | 475 kts | 238° |
| 2026-05-06 07:34 | 26.18042 | -130.80106 | 34244 ft | 475 kts | 238° |
| 2026-05-06 07:35 | 26.14217 | -130.86100 | 34238 ft | 475 kts | 238° |
| 2026-05-06 07:35 | 26.10384 | -130.92098 | 34235 ft | 475 kts | 238° |
| 2026-05-06 07:36 | 26.06576 | -130.98052 | 34241 ft | 476 kts | 238° |
| 2026-05-06 07:36 | 26.02734 | -131.04048 | 34243 ft | 476 kts | 238° |
| 2026-05-06 07:37 | 25.98892 | -131.10039 | 34244 ft | 476 kts | 238° |
| 2026-05-06 07:37 | 25.95047 | -131.16028 | 34238 ft | 477 kts | 237° |
| 2026-05-06 07:38 | 25.91181 | -131.22040 | 34240 ft | 479 kts | 237° |
| 2026-05-06 07:38 | 25.87332 | -131.28016 | 34241 ft | 479 kts | 237° |
| 2026-05-06 07:39 | 25.83456 | -131.34027 | 34242 ft | 479 kts | 237° |
| 2026-05-06 07:39 | 25.79576 | -131.40037 | 34240 ft | 479 kts | 237° |
| 2026-05-06 07:40 | 25.75719 | -131.46004 | 34240 ft | 479 kts | 237° |
| 2026-05-06 07:40 | 25.71833 | -131.52008 | 34242 ft | 479 kts | 237° |
| 2026-05-06 07:41 | 25.67941 | -131.58014 | 34238 ft | 479 kts | 237° |
| 2026-05-06 07:41 | 25.64047 | -131.64015 | 34241 ft | 479 kts | 237° |
| 2026-05-06 07:42 | 25.60152 | -131.70009 | 34242 ft | 479 kts | 237° |
| 2026-05-06 07:42 | 25.56279 | -131.75963 | 34241 ft | 480 kts | 237° |
| 2026-05-06 07:43 | 25.52376 | -131.81955 | 34241 ft | 480 kts | 237° |
| 2026-05-06 07:43 | 25.48472 | -131.87940 | 34241 ft | 480 kts | 237° |
| 2026-05-06 07:44 | 25.44565 | -131.93923 | 34237 ft | 480 kts | 237° |
| 2026-05-06 07:44 | 25.40656 | -131.99901 | 34236 ft | 480 kts | 237° |
| 2026-05-06 07:45 | 25.36770 | -132.05836 | 34241 ft | 479 kts | 237° |
| 2026-05-06 07:45 | 25.32858 | -132.11804 | 34246 ft | 479 kts | 237° |
| 2026-05-06 07:46 | 25.28941 | -132.17774 | 34239 ft | 479 kts | 237° |
| 2026-05-06 07:46 | 25.25025 | -132.23736 | 34244 ft | 479 kts | 237° |
| 2026-05-06 07:47 | 25.21137 | -132.29648 | 34240 ft | 479 kts | 237° |
| 2026-05-06 07:47 | 25.17218 | -132.35601 | 34251 ft | 479 kts | 237° |
| 2026-05-06 07:48 | 25.13299 | -132.41546 | 34243 ft | 479 kts | 237° |
| 2026-05-06 07:48 | 25.09381 | -132.47483 | 34243 ft | 478 kts | 237° |
| 2026-05-06 07:49 | 25.05488 | -132.53374 | 34238 ft | 478 kts | 237° |
| 2026-05-06 07:49 | 25.01565 | -132.59303 | 34247 ft | 478 kts | 237° |
| 2026-05-06 07:50 | 24.97643 | -132.65224 | 34237 ft | 478 kts | 237° |
| 2026-05-06 07:50 | 24.94387 | -132.70131 | 34252 ft | 476 kts | 237° |
| 2026-05-06 07:51 | 24.89848 | -132.76967 | 34252 ft | 475 kts | 237° |
| 2026-05-06 07:51 | 24.85941 | -132.82844 | 34240 ft | 475 kts | 237° |
| 2026-05-06 07:52 | 24.82035 | -132.88712 | 34238 ft | 475 kts | 237° |
| 2026-05-06 07:52 | 24.78786 | -132.93587 | 34246 ft | 475 kts | 237° |
| 2026-05-06 07:53 | 24.74239 | -133.00403 | 34236 ft | 475 kts | 237° |
| 2026-05-06 07:53 | 24.70322 | -133.06264 | 34246 ft | 475 kts | 237° |
| 2026-05-06 07:54 | 24.67069 | -133.11129 | 34245 ft | 475 kts | 237° |
| 2026-05-06 07:54 | 24.63152 | -133.16977 | 34246 ft | 475 kts | 237° |
| 2026-05-06 07:55 | 24.58597 | -133.23771 | 34239 ft | 475 kts | 237° |
| 2026-05-06 07:55 | 24.55339 | -133.28625 | 34243 ft | 474 kts | 237° |
| 2026-05-06 07:56 | 24.51425 | -133.34449 | 34243 ft | 474 kts | 237° |
| 2026-05-06 07:56 | 24.47507 | -133.40273 | 34239 ft | 474 kts | 237° |
| 2026-05-06 07:57 | 24.42959 | -133.47022 | 34243 ft | 472 kts | 237° |
| 2026-05-06 07:57 | 24.39713 | -133.51834 | 34244 ft | 472 kts | 237° |
| 2026-05-06 07:58 | 24.35802 | -133.57628 | 34243 ft | 472 kts | 237° |
| 2026-05-06 07:58 | 24.31892 | -133.63412 | 34234 ft | 472 kts | 237° |
| 2026-05-06 07:59 | 24.27976 | -133.69198 | 34242 ft | 472 kts | 237° |
| 2026-05-06 07:59 | 24.24058 | -133.74980 | 34241 ft | 472 kts | 237° |
| 2026-05-06 08:00 | 24.20164 | -133.80720 | 34243 ft | 472 kts | 237° |
| 2026-05-06 08:00 | 24.16243 | -133.86493 | 34243 ft | 472 kts | 237° |
| 2026-05-06 08:01 | 24.12321 | -133.92261 | 34243 ft | 472 kts | 237° |
| 2026-05-06 08:01 | 24.08394 | -133.98029 | 34238 ft | 472 kts | 237° |
| 2026-05-06 08:02 | 24.04493 | -134.03754 | 34233 ft | 472 kts | 237° |
| 2026-05-06 08:02 | 24.00562 | -134.09515 | 34237 ft | 472 kts | 237° |
| 2026-05-06 08:03 | 23.96633 | -134.15264 | 34234 ft | 471 kts | 237° |
| 2026-05-06 08:03 | 23.92713 | -134.20996 | 34235 ft | 470 kts | 237° |
| 2026-05-06 08:04 | 23.88819 | -134.26683 | 34235 ft | 470 kts | 237° |
| 2026-05-06 08:04 | 23.84899 | -134.32403 | 34235 ft | 470 kts | 237° |
| 2026-05-06 08:05 | 23.80979 | -134.38115 | 34235 ft | 470 kts | 237° |
| 2026-05-06 08:05 | 23.77053 | -134.43829 | 34233 ft | 470 kts | 237° |
| 2026-05-06 08:06 | 23.73132 | -134.49528 | 34233 ft | 469 kts | 237° |
| 2026-05-06 08:06 | 23.69235 | -134.55187 | 34230 ft | 469 kts | 237° |
| 2026-05-06 08:07 | 23.65312 | -134.60878 | 34228 ft | 470 kts | 237° |
| 2026-05-06 08:07 | 23.61389 | -134.66563 | 34227 ft | 469 kts | 237° |
| 2026-05-06 08:08 | 23.57458 | -134.72251 | 34227 ft | 469 kts | 237° |
| 2026-05-06 08:08 | 23.53528 | -134.77933 | 34227 ft | 469 kts | 237° |
| 2026-05-06 08:09 | 23.49623 | -134.83571 | 34220 ft | 469 kts | 237° |
| 2026-05-06 08:09 | 23.45695 | -134.89237 | 34226 ft | 468 kts | 237° |
| 2026-05-06 08:10 | 23.41766 | -134.94898 | 34224 ft | 468 kts | 237° |
| 2026-05-06 08:10 | 23.37838 | -135.00552 | 34216 ft | 468 kts | 237° |
| 2026-05-06 08:11 | 23.33932 | -135.06168 | 34224 ft | 468 kts | 237° |
| 2026-05-06 08:11 | 23.29999 | -135.11815 | 34228 ft | 468 kts | 237° |
| 2026-05-06 08:12 | 23.26063 | -135.17461 | 34222 ft | 468 kts | 237° |
| 2026-05-06 08:12 | 23.22126 | -135.23102 | 34226 ft | 468 kts | 237° |
| 2026-05-06 08:13 | 23.18213 | -135.28703 | 34225 ft | 468 kts | 237° |
| 2026-05-06 08:13 | 23.14271 | -135.34339 | 34222 ft | 468 kts | 237° |
| 2026-05-06 08:14 | 23.10327 | -135.39971 | 34225 ft | 468 kts | 237° |
| 2026-05-06 08:14 | 23.06383 | -135.45597 | 34220 ft | 468 kts | 237° |
| 2026-05-06 08:15 | 23.02467 | -135.51178 | 34217 ft | 468 kts | 237° |
| 2026-05-06 08:15 | 22.98524 | -135.56791 | 34216 ft | 468 kts | 237° |
| 2026-05-06 08:16 | 22.94577 | -135.62404 | 34212 ft | 468 kts | 237° |
| 2026-05-06 08:16 | 22.90628 | -135.68013 | 34213 ft | 467 kts | 237° |
| 2026-05-06 08:17 | 22.86709 | -135.73573 | 34209 ft | 467 kts | 237° |
| 2026-05-06 08:17 | 22.82761 | -135.79169 | 34216 ft | 467 kts | 237° |
| 2026-05-06 08:18 | 22.78809 | -135.84765 | 34204 ft | 467 kts | 237° |
| 2026-05-06 08:18 | 22.74856 | -135.90356 | 34207 ft | 467 kts | 237° |
| 2026-05-06 08:19 | 22.70931 | -135.95901 | 34208 ft | 467 kts | 237° |
| 2026-05-06 08:19 | 22.66974 | -136.01485 | 34204 ft | 468 kts | 237° |
| 2026-05-06 08:20 | 22.63012 | -136.07072 | 34207 ft | 468 kts | 237° |
| 2026-05-06 08:20 | 22.59045 | -136.12658 | 34205 ft | 468 kts | 237° |
| 2026-05-06 08:21 | 22.55101 | -136.18207 | 34208 ft | 468 kts | 237° |
| 2026-05-06 08:21 | 22.51130 | -136.23788 | 34206 ft | 468 kts | 237° |
| 2026-05-06 08:22 | 22.47155 | -136.29369 | 34198 ft | 469 kts | 237° |
| 2026-05-06 08:22 | 22.43171 | -136.34955 | 34220 ft | 469 kts | 237° |
| 2026-05-06 08:23 | 22.39187 | -136.40536 | 34199 ft | 469 kts | 237° |
| 2026-05-06 08:23 | 22.35222 | -136.46084 | 34212 ft | 469 kts | 237° |
| 2026-05-06 08:24 | 22.31233 | -136.51662 | 34201 ft | 470 kts | 237° |
| 2026-05-06 08:24 | 22.27234 | -136.57246 | 34199 ft | 470 kts | 237° |
| 2026-05-06 08:25 | 22.23237 | -136.62822 | 34201 ft | 470 kts | 237° |
| 2026-05-06 08:25 | 22.19258 | -136.68366 | 34203 ft | 470 kts | 237° |
| 2026-05-06 08:26 | 22.15253 | -136.73942 | 34199 ft | 470 kts | 236° |
| 2026-05-06 08:26 | 22.11242 | -136.79520 | 34194 ft | 470 kts | 236° |
| 2026-05-06 08:27 | 22.07255 | -136.85058 | 34188 ft | 470 kts | 236° |
| 2026-05-06 08:27 | 22.03242 | -136.90628 | 34188 ft | 471 kts | 236° |
| 2026-05-06 08:28 | 21.99226 | -136.96195 | 34190 ft | 471 kts | 236° |
| 2026-05-06 08:28 | 21.95203 | -137.01767 | 34190 ft | 471 kts | 236° |
| 2026-05-06 08:29 | 21.91180 | -137.07333 | 34193 ft | 471 kts | 236° |
| 2026-05-06 08:29 | 21.87180 | -137.12860 | 34196 ft | 471 kts | 236° |
| 2026-05-06 08:30 | 21.83149 | -137.18427 | 34182 ft | 471 kts | 236° |
| 2026-05-06 08:30 | 21.79119 | -137.23986 | 34189 ft | 472 kts | 236° |
| 2026-05-06 08:31 | 21.75080 | -137.29550 | 34187 ft | 472 kts | 236° |
| 2026-05-06 08:31 | 21.71068 | -137.35072 | 34184 ft | 472 kts | 236° |
| 2026-05-06 08:32 | 21.67025 | -137.40632 | 34184 ft | 472 kts | 236° |
| 2026-05-06 08:32 | 21.62978 | -137.46191 | 34181 ft | 472 kts | 236° |
| 2026-05-06 08:33 | 21.58932 | -137.51743 | 34181 ft | 472 kts | 236° |
| 2026-05-06 08:33 | 21.54911 | -137.57254 | 34180 ft | 472 kts | 236° |
| 2026-05-06 08:34 | 21.48833 | -137.65576 | 34181 ft | 472 kts | 236° |
| 2026-05-06 08:35 | 21.44776 | -137.71124 | 34180 ft | 472 kts | 236° |
| 2026-05-06 08:35 | 21.40744 | -137.76632 | 34178 ft | 473 kts | 236° |
| 2026-05-06 08:36 | 21.36680 | -137.82178 | 34171 ft | 473 kts | 236° |
| 2026-05-06 08:36 | 21.32614 | -137.87721 | 34171 ft | 472 kts | 236° |
| 2026-05-06 08:37 | 21.28550 | -137.93255 | 34175 ft | 472 kts | 236° |
| 2026-05-06 08:37 | 21.24487 | -137.98784 | 34175 ft | 472 kts | 236° |
| 2026-05-06 08:38 | 21.20449 | -138.04272 | 34170 ft | 472 kts | 236° |
| 2026-05-06 08:38 | 21.16383 | -138.09794 | 34171 ft | 472 kts | 236° |
| 2026-05-06 08:39 | 21.12314 | -138.15312 | 34168 ft | 471 kts | 236° |
| 2026-05-06 08:39 | 21.08251 | -138.20819 | 34169 ft | 471 kts | 236° |
| 2026-05-06 08:40 | 21.04216 | -138.26282 | 34172 ft | 471 kts | 236° |
| 2026-05-06 08:40 | 21.00148 | -138.31785 | 34171 ft | 471 kts | 236° |
| 2026-05-06 08:41 | 20.96082 | -138.37277 | 34168 ft | 471 kts | 236° |
| 2026-05-06 08:41 | 20.92021 | -138.42759 | 34165 ft | 470 kts | 236° |
| 2026-05-06 08:42 | 20.87991 | -138.48195 | 34173 ft | 470 kts | 236° |
| 2026-05-06 08:42 | 20.83930 | -138.53666 | 34166 ft | 470 kts | 236° |
| 2026-05-06 08:43 | 20.79866 | -138.59136 | 34157 ft | 470 kts | 236° |
| 2026-05-06 08:43 | 20.75809 | -138.64590 | 34165 ft | 468 kts | 236° |
| 2026-05-06 08:44 | 20.71779 | -138.70004 | 34160 ft | 468 kts | 236° |
| 2026-05-06 08:44 | 20.67723 | -138.75449 | 34165 ft | 468 kts | 236° |
| 2026-05-06 08:45 | 20.63665 | -138.80891 | 34156 ft | 468 kts | 236° |
| 2026-05-06 08:45 | 20.59605 | -138.86328 | 34160 ft | 468 kts | 236° |
| 2026-05-06 08:46 | 20.55577 | -138.91719 | 34158 ft | 467 kts | 236° |
| 2026-05-06 08:46 | 20.51521 | -138.97142 | 34160 ft | 468 kts | 236° |
| 2026-05-06 08:47 | 20.47466 | -139.02559 | 34155 ft | 467 kts | 236° |
| 2026-05-06 08:47 | 20.43407 | -139.07976 | 34152 ft | 467 kts | 236° |
| 2026-05-06 08:48 | 20.39375 | -139.13350 | 34156 ft | 467 kts | 236° |
| 2026-05-06 08:48 | 20.35325 | -139.18746 | 34154 ft | 466 kts | 236° |
| 2026-05-06 08:49 | 20.31268 | -139.24144 | 34157 ft | 466 kts | 236° |
| 2026-05-06 08:49 | 20.27212 | -139.29538 | 34152 ft | 466 kts | 236° |
| 2026-05-06 08:50 | 20.23181 | -139.34890 | 34147 ft | 466 kts | 237° |
| 2026-05-06 08:50 | 20.19131 | -139.40268 | 34150 ft | 465 kts | 237° |
| 2026-05-06 08:51 | 20.15080 | -139.45637 | 34152 ft | 465 kts | 237° |
| 2026-05-06 08:51 | 20.11026 | -139.51005 | 34146 ft | 465 kts | 237° |
| 2026-05-06 08:52 | 20.06966 | -139.56375 | 34147 ft | 466 kts | 237° |
| 2026-05-06 08:52 | 20.02932 | -139.61709 | 34143 ft | 466 kts | 237° |
| 2026-05-06 08:53 | 19.98870 | -139.67073 | 34143 ft | 466 kts | 237° |
| 2026-05-06 08:53 | 19.94802 | -139.72440 | 34141 ft | 466 kts | 237° |
| 2026-05-06 08:54 | 19.90737 | -139.77800 | 34142 ft | 466 kts | 237° |
| 2026-05-06 08:54 | 19.86694 | -139.83124 | 34139 ft | 466 kts | 237° |
| 2026-05-06 08:55 | 19.82623 | -139.88482 | 34143 ft | 466 kts | 237° |
| 2026-05-06 08:55 | 19.78548 | -139.93840 | 34140 ft | 466 kts | 237° |
| 2026-05-06 08:56 | 19.74499 | -139.99159 | 34143 ft | 466 kts | 237° |
| 2026-05-06 08:56 | 19.70421 | -140.04509 | 34139 ft | 466 kts | 237° |
| 2026-05-06 08:57 | 19.66340 | -140.09861 | 34135 ft | 467 kts | 237° |
| 2026-05-06 08:57 | 19.62249 | -140.15221 | 34136 ft | 468 kts | 237° |
| 2026-05-06 08:58 | 19.58181 | -140.20545 | 34131 ft | 468 kts | 237° |
| 2026-05-06 08:58 | 19.54085 | -140.25901 | 34136 ft | 468 kts | 237° |
| 2026-05-06 08:59 | 19.49982 | -140.31261 | 34130 ft | 468 kts | 237° |
| 2026-05-06 08:59 | 19.45876 | -140.36623 | 34128 ft | 469 kts | 237° |
| 2026-05-06 09:00 | 19.41784 | -140.41960 | 34132 ft | 470 kts | 237° |
| 2026-05-06 09:00 | 19.37660 | -140.47332 | 34130 ft | 470 kts | 237° |
| 2026-05-06 09:01 | 19.33531 | -140.52707 | 34131 ft | 470 kts | 236° |
| 2026-05-06 09:01 | 19.29403 | -140.58076 | 34118 ft | 470 kts | 236° |
| 2026-05-06 09:02 | 19.25269 | -140.63450 | 34129 ft | 471 kts | 236° |
| 2026-05-06 09:02 | 19.21157 | -140.68788 | 34127 ft | 471 kts | 236° |
| 2026-05-06 09:03 | 19.17021 | -140.74154 | 34127 ft | 471 kts | 236° |
| 2026-05-06 09:03 | 19.12882 | -140.79518 | 34127 ft | 471 kts | 236° |
| 2026-05-06 09:04 | 19.08742 | -140.84879 | 34122 ft | 471 kts | 236° |
| 2026-05-06 09:04 | 19.04632 | -140.90197 | 34124 ft | 470 kts | 236° |
| 2026-05-06 09:05 | 19.00497 | -140.95543 | 34123 ft | 470 kts | 236° |
| 2026-05-06 09:05 | 18.96359 | -141.00888 | 34121 ft | 470 kts | 236° |
| 2026-05-06 09:06 | 18.92221 | -141.06228 | 34122 ft | 470 kts | 236° |
| 2026-05-06 09:06 | 18.88107 | -141.11533 | 34117 ft | 469 kts | 236° |
| 2026-05-06 09:07 | 18.83979 | -141.16850 | 34126 ft | 468 kts | 236° |
| 2026-05-06 09:07 | 18.79853 | -141.22162 | 34119 ft | 468 kts | 236° |
| 2026-05-06 09:08 | 18.75723 | -141.27474 | 34117 ft | 468 kts | 236° |
| 2026-05-06 09:08 | 18.71633 | -141.32730 | 34116 ft | 468 kts | 236° |
| 2026-05-06 09:09 | 18.67503 | -141.38032 | 34113 ft | 467 kts | 236° |
| 2026-05-06 09:09 | 18.63379 | -141.43321 | 34114 ft | 466 kts | 236° |
| 2026-05-06 09:10 | 18.59259 | -141.48602 | 34112 ft | 466 kts | 236° |
| 2026-05-06 09:10 | 18.55163 | -141.53849 | 34116 ft | 466 kts | 236° |
| 2026-05-06 09:11 | 18.51040 | -141.59125 | 34112 ft | 466 kts | 236° |
| 2026-05-06 09:11 | 18.46920 | -141.64392 | 34110 ft | 465 kts | 236° |
| 2026-05-06 09:12 | 18.42804 | -141.69649 | 34110 ft | 465 kts | 236° |
| 2026-05-06 09:12 | 18.38719 | -141.74864 | 34110 ft | 465 kts | 236° |
| 2026-05-06 09:13 | 18.34603 | -141.80115 | 34108 ft | 465 kts | 236° |
| 2026-05-06 09:13 | 18.30490 | -141.85356 | 34107 ft | 464 kts | 236° |
| 2026-05-06 09:14 | 18.26380 | -141.90589 | 34108 ft | 464 kts | 235° |
| 2026-05-06 09:14 | 18.22271 | -141.95816 | 34105 ft | 463 kts | 235° |
| 2026-05-06 09:15 | 18.18189 | -142.01005 | 34105 ft | 463 kts | 235° |
| 2026-05-06 09:15 | 18.14079 | -142.06226 | 34106 ft | 463 kts | 235° |
| 2026-05-06 09:16 | 18.09972 | -142.11437 | 34105 ft | 463 kts | 235° |
| 2026-05-06 09:16 | 18.05869 | -142.16641 | 34100 ft | 463 kts | 235° |
| 2026-05-06 09:17 | 18.01789 | -142.21811 | 34101 ft | 463 kts | 235° |
| 2026-05-06 09:17 | 17.97677 | -142.27018 | 34099 ft | 463 kts | 235° |
| 2026-05-06 09:18 | 17.93563 | -142.32221 | 34097 ft | 463 kts | 235° |
| 2026-05-06 09:18 | 17.89450 | -142.37420 | 34097 ft | 463 kts | 235° |
| 2026-05-06 09:19 | 17.85363 | -142.42582 | 34099 ft | 463 kts | 235° |
| 2026-05-06 09:19 | 17.81248 | -142.47776 | 34095 ft | 463 kts | 235° |
| 2026-05-06 09:20 | 17.77133 | -142.52965 | 34101 ft | 463 kts | 235° |
| 2026-05-06 09:20 | 17.73019 | -142.58148 | 34094 ft | 462 kts | 235° |
| 2026-05-06 09:21 | 17.68937 | -142.63288 | 34094 ft | 462 kts | 235° |
| 2026-05-06 09:21 | 17.64824 | -142.68462 | 34088 ft | 462 kts | 235° |
| 2026-05-06 09:22 | 17.60710 | -142.73635 | 34096 ft | 462 kts | 235° |
| 2026-05-06 09:22 | 17.56588 | -142.78812 | 34098 ft | 462 kts | 234° |
| 2026-05-06 09:23 | 17.52496 | -142.83947 | 34092 ft | 462 kts | 234° |
| 2026-05-06 09:23 | 17.48378 | -142.89112 | 34091 ft | 462 kts | 234° |
| 2026-05-06 09:24 | 17.44258 | -142.94275 | 34089 ft | 462 kts | 234° |
| 2026-05-06 09:24 | 17.40138 | -142.99436 | 34093 ft | 462 kts | 234° |
| 2026-05-06 09:25 | 17.36039 | -143.04564 | 34087 ft | 462 kts | 234° |
| 2026-05-06 09:25 | 17.31911 | -143.09724 | 34098 ft | 462 kts | 234° |
| 2026-05-06 09:26 | 17.27785 | -143.14879 | 34083 ft | 462 kts | 234° |
| 2026-05-06 09:26 | 17.23661 | -143.20027 | 34084 ft | 462 kts | 234° |
| 2026-05-06 09:27 | 17.19538 | -143.25173 | 34078 ft | 462 kts | 234° |
| 2026-05-06 09:27 | 17.15440 | -143.30282 | 34077 ft | 461 kts | 234° |
| 2026-05-06 09:28 | 17.11316 | -143.35416 | 34091 ft | 461 kts | 234° |
| 2026-05-06 09:28 | 17.07193 | -143.40546 | 34090 ft | 461 kts | 234° |
| 2026-05-06 09:29 | 17.03068 | -143.45676 | 34075 ft | 461 kts | 234° |
| 2026-05-06 09:29 | 16.98970 | -143.50769 | 34083 ft | 461 kts | 234° |
| 2026-05-06 09:30 | 16.94844 | -143.55896 | 34084 ft | 462 kts | 233° |
| 2026-05-06 09:30 | 16.90701 | -143.61035 | 34082 ft | 462 kts | 233° |
| 2026-05-06 09:31 | 16.86559 | -143.66169 | 34079 ft | 462 kts | 233° |
| 2026-05-06 09:31 | 16.82443 | -143.71269 | 34078 ft | 462 kts | 233° |
| 2026-05-06 09:32 | 16.78294 | -143.76405 | 34077 ft | 462 kts | 233° |
| 2026-05-06 09:32 | 16.74154 | -143.81530 | 34075 ft | 462 kts | 232° |
| 2026-05-06 09:33 | 16.70002 | -143.86663 | 34076 ft | 463 kts | 232° |
| 2026-05-06 09:33 | 16.65867 | -143.91769 | 34066 ft | 464 kts | 232° |
| 2026-05-06 09:34 | 16.61704 | -143.96907 | 34065 ft | 464 kts | 232° |
| 2026-05-06 09:34 | 16.57543 | -144.02039 | 34077 ft | 463 kts | 232° |
| 2026-05-06 09:35 | 16.53384 | -144.07165 | 34053 ft | 463 kts | 232° |
| 2026-05-06 09:35 | 16.49217 | -144.12299 | 34071 ft | 465 kts | 232° |
| 2026-05-06 09:36 | 16.45059 | -144.17418 | 34066 ft | 466 kts | 232° |
| 2026-05-06 09:36 | 16.40867 | -144.22572 | 34064 ft | 466 kts | 232° |
| 2026-05-06 09:37 | 16.36677 | -144.27721 | 34063 ft | 466 kts | 232° |
| 2026-05-06 09:37 | 16.32488 | -144.32866 | 34065 ft | 466 kts | 232° |
| 2026-05-06 09:38 | 16.28295 | -144.38011 | 34059 ft | 467 kts | 232° |
| 2026-05-06 09:38 | 16.24118 | -144.43135 | 34059 ft | 467 kts | 232° |
| 2026-05-06 09:39 | 16.19908 | -144.48294 | 34060 ft | 468 kts | 232° |
| 2026-05-06 09:39 | 16.15700 | -144.53446 | 34061 ft | 467 kts | 232° |
| 2026-05-06 09:40 | 16.11489 | -144.58599 | 34060 ft | 467 kts | 232° |
| 2026-05-06 09:40 | 16.05201 | -144.66286 | 34054 ft | 468 kts | 232° |
| 2026-05-06 09:41 | 16.00976 | -144.71448 | 34056 ft | 469 kts | 232° |
| 2026-05-06 09:41 | 15.96747 | -144.76611 | 34053 ft | 469 kts | 232° |
| 2026-05-06 09:42 | 15.92514 | -144.81774 | 34051 ft | 469 kts | 231° |
| 2026-05-06 09:42 | 15.88310 | -144.86897 | 34050 ft | 469 kts | 231° |
| 2026-05-06 09:43 | 15.84075 | -144.92055 | 34048 ft | 469 kts | 231° |
| 2026-05-06 09:43 | 15.79833 | -144.97217 | 34047 ft | 471 kts | 232° |
| 2026-05-06 09:44 | 15.75579 | -145.02392 | 34048 ft | 471 kts | 231° |
| 2026-05-06 09:44 | 15.71355 | -145.07526 | 34049 ft | 471 kts | 231° |
| 2026-05-06 09:45 | 15.67107 | -145.12686 | 34048 ft | 470 kts | 231° |
| 2026-05-06 09:45 | 15.62855 | -145.17847 | 34043 ft | 470 kts | 231° |
| 2026-05-06 09:46 | 15.58606 | -145.23001 | 34042 ft | 470 kts | 231° |
| 2026-05-06 09:46 | 15.54351 | -145.28158 | 34040 ft | 470 kts | 231° |
| 2026-05-06 09:47 | 15.50127 | -145.33274 | 34039 ft | 470 kts | 231° |
| 2026-05-06 09:47 | 15.45873 | -145.38424 | 34040 ft | 470 kts | 231° |
| 2026-05-06 09:48 | 15.41618 | -145.43570 | 34039 ft | 470 kts | 231° |
| 2026-05-06 09:48 | 15.37364 | -145.48712 | 34040 ft | 470 kts | 231° |
| 2026-05-06 09:49 | 15.33134 | -145.53820 | 34036 ft | 470 kts | 231° |
| 2026-05-06 09:49 | 15.28870 | -145.58967 | 34037 ft | 471 kts | 231° |
| 2026-05-06 09:50 | 15.24599 | -145.64120 | 34037 ft | 471 kts | 231° |
| 2026-05-06 09:50 | 15.20368 | -145.69220 | 34037 ft | 471 kts | 231° |
| 2026-05-06 09:51 | 15.16123 | -145.74333 | 34034 ft | 471 kts | 231° |
| 2026-05-06 09:51 | 15.11848 | -145.79479 | 34037 ft | 471 kts | 231° |
| 2026-05-06 09:52 | 15.07569 | -145.84628 | 34033 ft | 473 kts | 231° |
| 2026-05-06 09:52 | 15.03278 | -145.89787 | 34027 ft | 473 kts | 231° |
| 2026-05-06 09:53 | 14.99016 | -145.94907 | 34028 ft | 473 kts | 231° |
| 2026-05-06 09:53 | 14.94720 | -146.00064 | 34026 ft | 473 kts | 231° |
| 2026-05-06 09:54 | 14.90424 | -146.05218 | 34027 ft | 473 kts | 231° |
| 2026-05-06 09:54 | 14.86127 | -146.10373 | 34017 ft | 473 kts | 231° |
| 2026-05-06 09:55 | 14.81823 | -146.15531 | 34021 ft | 474 kts | 231° |
| 2026-05-06 09:55 | 14.77543 | -146.20653 | 34021 ft | 474 kts | 231° |
| 2026-05-06 09:56 | 14.73229 | -146.25813 | 34018 ft | 474 kts | 231° |
| 2026-05-06 09:56 | 14.68919 | -146.30967 | 34024 ft | 474 kts | 231° |
| 2026-05-06 09:57 | 14.64611 | -146.36116 | 34020 ft | 474 kts | 231° |
| 2026-05-06 09:57 | 14.60298 | -146.41264 | 34020 ft | 474 kts | 231° |
| 2026-05-06 09:58 | 14.56006 | -146.46386 | 34013 ft | 475 kts | 231° |
| 2026-05-06 09:58 | 14.51677 | -146.51550 | 34015 ft | 475 kts | 231° |
| 2026-05-06 09:59 | 14.47353 | -146.56705 | 34010 ft | 475 kts | 231° |
| 2026-05-06 09:59 | 14.43019 | -146.61867 | 34011 ft | 476 kts | 231° |
| 2026-05-06 10:00 | 14.38707 | -146.67000 | 34012 ft | 477 kts | 231° |
| 2026-05-06 10:00 | 14.34370 | -146.72160 | 34008 ft | 475 kts | 231° |
| 2026-05-06 10:01 | 14.30044 | -146.77302 | 34008 ft | 474 kts | 231° |
| 2026-05-06 10:01 | 14.25718 | -146.82441 | 34003 ft | 474 kts | 231° |
| 2026-05-06 10:02 | 14.21420 | -146.87545 | 34006 ft | 475 kts | 231° |
| 2026-05-06 10:02 | 14.17080 | -146.92695 | 34000 ft | 476 kts | 231° |
| 2026-05-06 10:03 | 14.12732 | -146.97851 | 34001 ft | 476 kts | 231° |
| 2026-05-06 10:03 | 14.08388 | -147.02998 | 34001 ft | 474 kts | 230° |
| 2026-05-06 10:04 | 14.04070 | -147.08111 | 34001 ft | 473 kts | 230° |
| 2026-05-06 10:04 | 13.99783 | -147.13186 | 34002 ft | 473 kts | 230° |
| 2026-05-06 10:05 | 13.95456 | -147.18304 | 33997 ft | 474 kts | 230° |
| 2026-05-06 10:05 | 13.91128 | -147.23420 | 33996 ft | 474 kts | 230° |
| 2026-05-06 10:06 | 13.86799 | -147.28534 | 33995 ft | 474 kts | 230° |
| 2026-05-06 10:06 | 13.82504 | -147.33605 | 33985 ft | 472 kts | 230° |
| 2026-05-06 10:07 | 13.78203 | -147.38679 | 33989 ft | 472 kts | 230° |
| 2026-05-06 10:07 | 13.73883 | -147.43773 | 34002 ft | 473 kts | 230° |
| 2026-05-06 10:08 | 13.69562 | -147.48866 | 33984 ft | 473 kts | 230° |
| 2026-05-06 10:08 | 13.65233 | -147.53964 | 33981 ft | 473 kts | 230° |
| 2026-05-06 10:09 | 13.60936 | -147.59022 | 33984 ft | 473 kts | 230° |
| 2026-05-06 10:09 | 13.56606 | -147.64115 | 33980 ft | 474 kts | 230° |
| 2026-05-06 10:10 | 13.52261 | -147.69224 | 33990 ft | 475 kts | 230° |
| 2026-05-06 10:10 | 13.47909 | -147.74337 | 33985 ft | 475 kts | 230° |
| 2026-05-06 10:11 | 13.43555 | -147.79448 | 33971 ft | 475 kts | 230° |
| 2026-05-06 10:11 | 13.39229 | -147.84525 | 33985 ft | 475 kts | 230° |
| 2026-05-06 10:12 | 13.34875 | -147.89632 | 33981 ft | 475 kts | 230° |
| 2026-05-06 10:12 | 13.30523 | -147.94732 | 33974 ft | 474 kts | 230° |
| 2026-05-06 10:13 | 13.26175 | -147.99826 | 33977 ft | 475 kts | 230° |
| 2026-05-06 10:13 | 13.21847 | -148.04893 | 33973 ft | 475 kts | 230° |
| 2026-05-06 10:14 | 13.17490 | -148.09990 | 33972 ft | 475 kts | 230° |
| 2026-05-06 10:14 | 13.13132 | -148.15086 | 33969 ft | 475 kts | 230° |
| 2026-05-06 10:15 | 13.08773 | -148.20180 | 33977 ft | 475 kts | 230° |
| 2026-05-06 10:15 | 13.04405 | -148.25283 | 33959 ft | 477 kts | 230° |
| 2026-05-06 10:16 | 13.00054 | -148.30361 | 33973 ft | 478 kts | 230° |
| 2026-05-06 10:16 | 12.95669 | -148.35477 | 33971 ft | 477 kts | 230° |
| 2026-05-06 10:17 | 12.91282 | -148.40592 | 33956 ft | 478 kts | 230° |
| 2026-05-06 10:17 | 12.86895 | -148.45703 | 33973 ft | 478 kts | 230° |
| 2026-05-06 10:18 | 12.82535 | -148.50782 | 33955 ft | 478 kts | 230° |
| 2026-05-06 10:18 | 12.78143 | -148.55893 | 33960 ft | 477 kts | 230° |
| 2026-05-06 10:19 | 12.73755 | -148.60997 | 33965 ft | 477 kts | 230° |
| 2026-05-06 10:19 | 12.69370 | -148.66096 | 33965 ft | 477 kts | 230° |
| 2026-05-06 10:20 | 12.65012 | -148.71159 | 33962 ft | 477 kts | 230° |
| 2026-05-06 10:20 | 12.60624 | -148.76255 | 33959 ft | 477 kts | 230° |
| 2026-05-06 10:21 | 12.56234 | -148.81351 | 33958 ft | 477 kts | 230° |
| 2026-05-06 10:21 | 12.51847 | -148.86439 | 33955 ft | 476 kts | 230° |
| 2026-05-06 10:22 | 12.47511 | -148.91467 | 33956 ft | 473 kts | 230° |
| 2026-05-06 10:22 | 12.43152 | -148.96517 | 33953 ft | 473 kts | 230° |
| 2026-05-06 10:23 | 12.38801 | -149.01556 | 33957 ft | 473 kts | 230° |
| 2026-05-06 10:23 | 12.34436 | -149.06608 | 33951 ft | 474 kts | 230° |
| 2026-05-06 10:24 | 12.30061 | -149.11669 | 33949 ft | 475 kts | 230° |
| 2026-05-06 10:24 | 12.25714 | -149.16696 | 33946 ft | 475 kts | 230° |
| 2026-05-06 10:25 | 12.21348 | -149.21741 | 33947 ft | 473 kts | 230° |
| 2026-05-06 10:25 | 12.16985 | -149.26779 | 33950 ft | 473 kts | 230° |
| 2026-05-06 10:26 | 12.12622 | -149.31815 | 33947 ft | 473 kts | 230° |
| 2026-05-06 10:26 | 12.08251 | -149.36859 | 33946 ft | 474 kts | 230° |
| 2026-05-06 10:27 | 12.03903 | -149.41873 | 33944 ft | 475 kts | 230° |
| 2026-05-06 10:27 | 11.99524 | -149.46919 | 33944 ft | 475 kts | 230° |
| 2026-05-06 10:28 | 11.95140 | -149.51969 | 33947 ft | 475 kts | 229° |
| 2026-05-06 10:28 | 11.90757 | -149.57015 | 33945 ft | 475 kts | 229° |
| 2026-05-06 10:29 | 11.86400 | -149.62029 | 33944 ft | 475 kts | 229° |
| 2026-05-06 10:29 | 11.82010 | -149.67078 | 33944 ft | 476 kts | 229° |
| 2026-05-06 10:30 | 11.77608 | -149.72138 | 33941 ft | 476 kts | 229° |
| 2026-05-06 10:30 | 11.73954 | -149.76335 | 33941 ft | 476 kts | 229° |
| 2026-05-06 10:31 | 11.68837 | -149.82212 | 33938 ft | 476 kts | 229° |
| 2026-05-06 10:31 | 11.64442 | -149.87256 | 33938 ft | 476 kts | 229° |
| 2026-05-06 10:32 | 11.60039 | -149.92306 | 33936 ft | 477 kts | 229° |
| 2026-05-06 10:32 | 11.56377 | -149.96505 | 33936 ft | 477 kts | 229° |
| 2026-05-06 10:33 | 11.51966 | -150.01562 | 33935 ft | 477 kts | 229° |
| 2026-05-06 10:33 | 11.47554 | -150.06611 | 33934 ft | 477 kts | 229° |
| 2026-05-06 10:34 | 11.43134 | -150.11662 | 33931 ft | 477 kts | 229° |
| 2026-05-06 10:34 | 11.38753 | -150.16668 | 33933 ft | 476 kts | 229° |
| 2026-05-06 10:35 | 11.34342 | -150.21707 | 33932 ft | 477 kts | 229° |
| 2026-05-06 10:35 | 11.29926 | -150.26750 | 33931 ft | 477 kts | 229° |
| 2026-05-06 10:36 | 11.25511 | -150.31789 | 33928 ft | 477 kts | 229° |
| 2026-05-06 10:36 | 11.21124 | -150.36793 | 33935 ft | 477 kts | 229° |
| 2026-05-06 10:37 | 11.16706 | -150.41831 | 33932 ft | 477 kts | 229° |
| 2026-05-06 10:37 | 11.12289 | -150.46864 | 33924 ft | 476 kts | 229° |
| 2026-05-06 10:38 | 11.07871 | -150.51896 | 33929 ft | 477 kts | 229° |
| 2026-05-06 10:38 | 11.03477 | -150.56899 | 33921 ft | 477 kts | 229° |
| 2026-05-06 10:39 | 10.99053 | -150.61933 | 33921 ft | 477 kts | 229° |
| 2026-05-06 10:39 | 10.94627 | -150.66967 | 33923 ft | 477 kts | 229° |
| 2026-05-06 10:40 | 10.90201 | -150.71999 | 33922 ft | 477 kts | 229° |
| 2026-05-06 10:40 | 10.85771 | -150.77033 | 33926 ft | 477 kts | 229° |
| 2026-05-06 10:41 | 10.81369 | -150.82032 | 33919 ft | 478 kts | 229° |
| 2026-05-06 10:41 | 10.76933 | -150.87068 | 33923 ft | 478 kts | 229° |
| 2026-05-06 10:42 | 10.72497 | -150.92102 | 33920 ft | 478 kts | 229° |
| 2026-05-06 10:42 | 10.68060 | -150.97134 | 33915 ft | 478 kts | 229° |
| 2026-05-06 10:43 | 10.63621 | -151.02166 | 33919 ft | 478 kts | 229° |
| 2026-05-06 10:44 | 10.56989 | -151.09679 | 33911 ft | 478 kts | 228° |
| 2026-05-06 10:44 | 10.52550 | -151.14706 | 33913 ft | 477 kts | 228° |
| 2026-05-06 10:45 | 10.48118 | -151.19722 | 33918 ft | 477 kts | 228° |
| 2026-05-06 10:45 | 10.43713 | -151.24705 | 33915 ft | 477 kts | 228° |
| 2026-05-06 10:46 | 10.39284 | -151.29713 | 33915 ft | 477 kts | 228° |
| 2026-05-06 10:46 | 10.34850 | -151.34724 | 33917 ft | 477 kts | 228° |
| 2026-05-06 10:47 | 10.30407 | -151.39743 | 33909 ft | 478 kts | 228° |
| 2026-05-06 10:47 | 10.25959 | -151.44765 | 33907 ft | 478 kts | 228° |
| 2026-05-06 10:48 | 10.21545 | -151.49748 | 33909 ft | 478 kts | 228° |
| 2026-05-06 10:48 | 10.17095 | -151.54767 | 33908 ft | 478 kts | 228° |
| 2026-05-06 10:49 | 10.12646 | -151.59784 | 33907 ft | 478 kts | 228° |
| 2026-05-06 10:49 | 10.08198 | -151.64798 | 33907 ft | 478 kts | 228° |
| 2026-05-06 10:50 | 10.03774 | -151.69782 | 33905 ft | 478 kts | 228° |
| 2026-05-06 10:50 | 9.99322 | -151.74795 | 33903 ft | 478 kts | 228° |
| 2026-05-06 10:51 | 9.94875 | -151.79799 | 33902 ft | 477 kts | 229° |
| 2026-05-06 10:51 | 9.90428 | -151.84802 | 33903 ft | 477 kts | 229° |
| 2026-05-06 10:52 | 9.85988 | -151.89797 | 33900 ft | 477 kts | 229° |
| 2026-05-06 10:52 | 9.81573 | -151.94761 | 33900 ft | 477 kts | 229° |
| 2026-05-06 10:53 | 9.77125 | -151.99758 | 33900 ft | 477 kts | 229° |
| 2026-05-06 10:53 | 9.72673 | -152.04759 | 33900 ft | 477 kts | 229° |
| 2026-05-06 10:54 | 9.68223 | -152.09755 | 33897 ft | 478 kts | 229° |
| 2026-05-06 10:54 | 9.63795 | -152.14724 | 33900 ft | 479 kts | 229° |
| 2026-05-06 10:55 | 9.59334 | -152.19728 | 33894 ft | 479 kts | 229° |
| 2026-05-06 10:55 | 9.54867 | -152.24737 | 33895 ft | 479 kts | 229° |
| 2026-05-06 10:56 | 9.50406 | -152.29737 | 33895 ft | 479 kts | 229° |
| 2026-05-06 10:56 | 9.45969 | -152.34707 | 33895 ft | 479 kts | 229° |
| 2026-05-06 10:57 | 9.41507 | -152.39705 | 33895 ft | 479 kts | 229° |
| 2026-05-06 10:57 | 9.37040 | -152.44705 | 33894 ft | 479 kts | 229° |
| 2026-05-06 10:58 | 9.32561 | -152.49716 | 33891 ft | 480 kts | 229° |
| 2026-05-06 10:58 | 9.28072 | -152.54737 | 33891 ft | 480 kts | 229° |
| 2026-05-06 10:59 | 9.23620 | -152.59714 | 33890 ft | 480 kts | 229° |
| 2026-05-06 10:59 | 9.19141 | -152.64720 | 33889 ft | 480 kts | 229° |
| 2026-05-06 11:00 | 9.14660 | -152.69726 | 33885 ft | 480 kts | 229° |
| 2026-05-06 11:00 | 9.10180 | -152.74728 | 33888 ft | 480 kts | 229° |
| 2026-05-06 11:01 | 9.05732 | -152.79693 | 33890 ft | 481 kts | 229° |
| 2026-05-06 11:01 | 9.01232 | -152.84715 | 33881 ft | 481 kts | 228° |
| 2026-05-06 11:02 | 8.96735 | -152.89730 | 33885 ft | 481 kts | 228° |
| 2026-05-06 11:02 | 8.92237 | -152.94743 | 33880 ft | 481 kts | 228° |
| 2026-05-06 11:03 | 8.87741 | -152.99754 | 33884 ft | 481 kts | 228° |
| 2026-05-06 11:03 | 8.83271 | -153.04734 | 33882 ft | 481 kts | 228° |
| 2026-05-06 11:04 | 8.78772 | -153.09743 | 33882 ft | 481 kts | 228° |
| 2026-05-06 11:04 | 8.74259 | -153.14768 | 33884 ft | 484 kts | 228° |
| 2026-05-06 11:05 | 8.69729 | -153.19807 | 33883 ft | 484 kts | 228° |
| 2026-05-06 11:05 | 8.65231 | -153.24811 | 33881 ft | 484 kts | 228° |
| 2026-05-06 11:06 | 8.60698 | -153.29850 | 33881 ft | 484 kts | 228° |
| 2026-05-06 11:06 | 8.56166 | -153.34887 | 33881 ft | 484 kts | 228° |
| 2026-05-06 11:07 | 8.51630 | -153.39926 | 33880 ft | 484 kts | 228° |
| 2026-05-06 11:07 | 8.47126 | -153.44928 | 33872 ft | 485 kts | 228° |
| 2026-05-06 11:08 | 8.42585 | -153.49970 | 33878 ft | 486 kts | 228° |
| 2026-05-06 11:08 | 8.38034 | -153.55020 | 33878 ft | 486 kts | 228° |
| 2026-05-06 11:09 | 8.33481 | -153.60070 | 33878 ft | 486 kts | 228° |
| 2026-05-06 11:09 | 8.28961 | -153.65083 | 33878 ft | 486 kts | 228° |
| 2026-05-06 11:10 | 8.24407 | -153.70130 | 33878 ft | 486 kts | 228° |
| 2026-05-06 11:10 | 8.19853 | -153.75176 | 33878 ft | 486 kts | 228° |
| 2026-05-06 11:11 | 8.15297 | -153.80223 | 33873 ft | 487 kts | 228° |
| 2026-05-06 11:11 | 8.13022 | -153.82743 | 34064 ft | 485 kts | 228° |
| 2026-05-06 11:11 | 8.10761 | -153.85249 | 34325 ft | 482 kts | 228° |
| 2026-05-06 11:11 | 8.08535 | -153.87709 | 34544 ft | 480 kts | 228° |
| 2026-05-06 11:12 | 8.06283 | -153.90195 | 34712 ft | 480 kts | 228° |
| 2026-05-06 11:12 | 8.04030 | -153.92683 | 34866 ft | 479 kts | 228° |
| 2026-05-06 11:12 | 8.01782 | -153.95166 | 35024 ft | 479 kts | 228° |
| 2026-05-06 11:12 | 7.99535 | -153.97647 | 35158 ft | 479 kts | 228° |
| 2026-05-06 11:13 | 7.97290 | -154.00127 | 35300 ft | 479 kts | 228° |
| 2026-05-06 11:13 | 7.95039 | -154.02612 | 35429 ft | 479 kts | 228° |
| 2026-05-06 11:13 | 7.92796 | -154.05089 | 35578 ft | 478 kts | 228° |
| 2026-05-06 11:14 | 7.88329 | -154.10019 | 35805 ft | 479 kts | 229° |
| 2026-05-06 11:14 | 7.83819 | -154.14997 | 35867 ft | 483 kts | 229° |
| 2026-05-06 11:15 | 7.79272 | -154.20013 | 35876 ft | 485 kts | 229° |
| 2026-05-06 11:15 | 7.74722 | -154.25029 | 35871 ft | 484 kts | 229° |
| 2026-05-06 11:16 | 7.70205 | -154.30008 | 35873 ft | 484 kts | 229° |
| 2026-05-06 11:16 | 7.65656 | -154.35021 | 35877 ft | 484 kts | 229° |
| 2026-05-06 11:17 | 7.61106 | -154.40032 | 35867 ft | 485 kts | 229° |
| 2026-05-06 11:17 | 7.56548 | -154.45052 | 35875 ft | 485 kts | 229° |
| 2026-05-06 11:18 | 7.51992 | -154.50067 | 35867 ft | 485 kts | 229° |
| 2026-05-06 11:18 | 7.47477 | -154.55036 | 35865 ft | 483 kts | 229° |
| 2026-05-06 11:19 | 7.42932 | -154.60035 | 35867 ft | 483 kts | 229° |
| 2026-05-06 11:19 | 7.38392 | -154.65029 | 35864 ft | 484 kts | 229° |
| 2026-05-06 11:20 | 7.33847 | -154.70025 | 35867 ft | 484 kts | 229° |
| 2026-05-06 11:20 | 7.29334 | -154.74985 | 35874 ft | 484 kts | 229° |
| 2026-05-06 11:21 | 7.24787 | -154.79980 | 35863 ft | 484 kts | 229° |
| 2026-05-06 11:21 | 7.20240 | -154.84975 | 35863 ft | 484 kts | 229° |
| 2026-05-06 11:22 | 7.15694 | -154.89967 | 35865 ft | 484 kts | 229° |
| 2026-05-06 11:22 | 7.11147 | -154.94957 | 35865 ft | 484 kts | 229° |
| 2026-05-06 11:23 | 7.06629 | -154.99915 | 35869 ft | 484 kts | 229° |
| 2026-05-06 11:23 | 7.02071 | -155.04914 | 35872 ft | 485 kts | 229° |
| 2026-05-06 11:24 | 6.97514 | -155.09911 | 35870 ft | 485 kts | 229° |
| 2026-05-06 11:24 | 6.92956 | -155.14908 | 35866 ft | 485 kts | 229° |
| 2026-05-06 11:25 | 6.88422 | -155.19877 | 35863 ft | 484 kts | 229° |
| 2026-05-06 11:25 | 6.83866 | -155.24868 | 35862 ft | 484 kts | 228° |
| 2026-05-06 11:26 | 6.79315 | -155.29852 | 35883 ft | 484 kts | 229° |
| 2026-05-06 11:26 | 6.74755 | -155.34844 | 35869 ft | 485 kts | 229° |
| 2026-05-06 11:27 | 6.70266 | -155.39759 | 35863 ft | 485 kts | 229° |
| 2026-05-06 11:27 | 6.65729 | -155.44723 | 35864 ft | 485 kts | 229° |
| 2026-05-06 11:28 | 6.61162 | -155.49719 | 35864 ft | 485 kts | 229° |
| 2026-05-06 11:28 | 6.56589 | -155.54720 | 35878 ft | 485 kts | 229° |
| 2026-05-06 11:29 | 6.52060 | -155.59672 | 35867 ft | 484 kts | 229° |
| 2026-05-06 11:29 | 6.47496 | -155.64660 | 35869 ft | 485 kts | 229° |
| 2026-05-06 11:30 | 6.42923 | -155.69657 | 35866 ft | 486 kts | 229° |
| 2026-05-06 11:30 | 6.38349 | -155.74653 | 35868 ft | 486 kts | 229° |
| 2026-05-06 11:31 | 6.33772 | -155.79651 | 35872 ft | 486 kts | 229° |
| 2026-05-06 11:31 | 6.29224 | -155.84617 | 35865 ft | 486 kts | 229° |
| 2026-05-06 11:32 | 6.24647 | -155.89613 | 35867 ft | 486 kts | 229° |
| 2026-05-06 11:32 | 6.20072 | -155.94604 | 35863 ft | 485 kts | 229° |
| 2026-05-06 11:33 | 6.15495 | -155.99597 | 35869 ft | 486 kts | 229° |
| 2026-05-06 11:33 | 6.10942 | -156.04562 | 35865 ft | 486 kts | 229° |
| 2026-05-06 11:34 | 6.06359 | -156.09559 | 35866 ft | 486 kts | 229° |
| 2026-05-06 11:34 | 6.01774 | -156.14555 | 35865 ft | 486 kts | 229° |
| 2026-05-06 11:35 | 5.97191 | -156.19550 | 35865 ft | 486 kts | 229° |
| 2026-05-06 11:35 | 5.92608 | -156.24542 | 35862 ft | 486 kts | 229° |
| 2026-05-06 11:36 | 5.88049 | -156.29507 | 35865 ft | 487 kts | 229° |
| 2026-05-06 11:36 | 5.83451 | -156.34513 | 35864 ft | 487 kts | 229° |
| 2026-05-06 11:37 | 5.78856 | -156.39515 | 35864 ft | 487 kts | 229° |
| 2026-05-06 11:37 | 5.74259 | -156.44518 | 35862 ft | 487 kts | 229° |
| 2026-05-06 11:38 | 5.69689 | -156.49489 | 35864 ft | 487 kts | 229° |
| 2026-05-06 11:38 | 5.65091 | -156.54491 | 35861 ft | 487 kts | 229° |
| 2026-05-06 11:39 | 5.60493 | -156.59490 | 35864 ft | 488 kts | 229° |
| 2026-05-06 11:39 | 5.55883 | -156.64503 | 35862 ft | 489 kts | 229° |
| 2026-05-06 11:40 | 5.51297 | -156.69487 | 35861 ft | 489 kts | 229° |
| 2026-05-06 11:40 | 5.46680 | -156.74503 | 35859 ft | 489 kts | 229° |
| 2026-05-06 11:41 | 5.42057 | -156.79525 | 35858 ft | 489 kts | 229° |
| 2026-05-06 11:41 | 5.37438 | -156.84541 | 35859 ft | 489 kts | 229° |
| 2026-05-06 11:42 | 5.32820 | -156.89556 | 35863 ft | 489 kts | 229° |
| 2026-05-06 11:42 | 5.28223 | -156.94546 | 35869 ft | 491 kts | 229° |
| 2026-05-06 11:43 | 5.23588 | -156.99577 | 35854 ft | 492 kts | 229° |
| 2026-05-06 11:43 | 5.18937 | -157.04623 | 35857 ft | 493 kts | 229° |
| 2026-05-06 11:44 | 5.11989 | -157.12159 | 35855 ft | 493 kts | 229° |
| 2026-05-06 11:44 | 5.07334 | -157.17207 | 35868 ft | 493 kts | 229° |
| 2026-05-06 11:45 | 5.02681 | -157.22252 | 35852 ft | 493 kts | 229° |
| 2026-05-06 11:45 | 4.98020 | -157.27307 | 35854 ft | 494 kts | 229° |
| 2026-05-06 11:46 | 4.93382 | -157.32341 | 35851 ft | 495 kts | 229° |
| 2026-05-06 11:46 | 4.88716 | -157.37404 | 35850 ft | 494 kts | 229° |
| 2026-05-06 11:47 | 4.84055 | -157.42462 | 35849 ft | 493 kts | 229° |
| 2026-05-06 11:47 | 4.79399 | -157.47513 | 35853 ft | 493 kts | 229° |
| 2026-05-06 11:48 | 4.74767 | -157.52536 | 35845 ft | 494 kts | 229° |
| 2026-05-06 11:48 | 4.70106 | -157.57591 | 35846 ft | 494 kts | 229° |
| 2026-05-06 11:49 | 4.65440 | -157.62649 | 35849 ft | 494 kts | 229° |
| 2026-05-06 11:49 | 4.60773 | -157.67707 | 35848 ft | 494 kts | 229° |
| 2026-05-06 11:50 | 4.56136 | -157.72732 | 35844 ft | 494 kts | 229° |
| 2026-05-06 11:50 | 4.51477 | -157.77778 | 35846 ft | 493 kts | 229° |
| 2026-05-06 11:51 | 4.46821 | -157.82822 | 35846 ft | 493 kts | 229° |
| 2026-05-06 11:51 | 4.42164 | -157.87865 | 35844 ft | 493 kts | 229° |
| 2026-05-06 11:52 | 4.37538 | -157.92874 | 35846 ft | 493 kts | 229° |
| 2026-05-06 11:52 | 4.32879 | -157.97918 | 35851 ft | 493 kts | 229° |
| 2026-05-06 11:53 | 4.28219 | -158.02961 | 35851 ft | 493 kts | 229° |
| 2026-05-06 11:53 | 4.23558 | -158.08005 | 35849 ft | 493 kts | 229° |
| 2026-05-06 11:54 | 4.18933 | -158.13009 | 35851 ft | 492 kts | 229° |
| 2026-05-06 11:54 | 4.14281 | -158.18040 | 35851 ft | 492 kts | 229° |
| 2026-05-06 11:55 | 4.09628 | -158.23072 | 35851 ft | 492 kts | 229° |
| 2026-05-06 11:55 | 4.04972 | -158.28107 | 35849 ft | 493 kts | 229° |
| 2026-05-06 11:56 | 4.00347 | -158.33108 | 35854 ft | 493 kts | 229° |
| 2026-05-06 11:56 | 3.95688 | -158.38144 | 35854 ft | 493 kts | 229° |
| 2026-05-06 11:57 | 3.91032 | -158.43176 | 35855 ft | 493 kts | 229° |
| 2026-05-06 11:57 | 3.86370 | -158.48212 | 35852 ft | 493 kts | 229° |
| 2026-05-06 11:58 | 3.81742 | -158.53213 | 35861 ft | 493 kts | 229° |
| 2026-05-06 11:58 | 3.77077 | -158.58252 | 35852 ft | 494 kts | 229° |
| 2026-05-06 11:59 | 3.72405 | -158.63298 | 35852 ft | 494 kts | 229° |
| 2026-05-06 11:59 | 3.67732 | -158.68343 | 35852 ft | 494 kts | 229° |
| 2026-05-06 12:00 | 3.63088 | -158.73356 | 35852 ft | 494 kts | 229° |
| 2026-05-06 12:00 | 3.58413 | -158.78403 | 35852 ft | 494 kts | 229° |
| 2026-05-06 12:01 | 3.53742 | -158.83444 | 35850 ft | 494 kts | 229° |
| 2026-05-06 12:01 | 3.49074 | -158.88481 | 35853 ft | 493 kts | 229° |
| 2026-05-06 12:02 | 3.44407 | -158.93517 | 35852 ft | 494 kts | 229° |
| 2026-05-06 12:02 | 3.39769 | -158.98520 | 35848 ft | 494 kts | 229° |
| 2026-05-06 12:03 | 3.35098 | -159.03558 | 35852 ft | 494 kts | 229° |
| 2026-05-06 12:03 | 3.30428 | -159.08594 | 35848 ft | 494 kts | 229° |
| 2026-05-06 12:04 | 3.25758 | -159.13630 | 35849 ft | 494 kts | 229° |
| 2026-05-06 12:04 | 3.21117 | -159.18633 | 35851 ft | 494 kts | 229° |
| 2026-05-06 12:05 | 3.16440 | -159.23674 | 35852 ft | 494 kts | 229° |
| 2026-05-06 12:05 | 3.11763 | -159.28716 | 35852 ft | 494 kts | 229° |
| 2026-05-06 12:06 | 3.07086 | -159.33756 | 35848 ft | 494 kts | 229° |
| 2026-05-06 12:06 | 3.02438 | -159.38764 | 35848 ft | 494 kts | 229° |
| 2026-05-06 12:07 | 2.97755 | -159.43809 | 35852 ft | 494 kts | 229° |
| 2026-05-06 12:07 | 2.93077 | -159.48848 | 35852 ft | 494 kts | 229° |
| 2026-05-06 12:08 | 2.88395 | -159.53892 | 35854 ft | 495 kts | 229° |
| 2026-05-06 12:08 | 2.83738 | -159.58907 | 35848 ft | 496 kts | 228° |
| 2026-05-06 12:09 | 2.79042 | -159.63964 | 35852 ft | 496 kts | 228° |
| 2026-05-06 12:09 | 2.74344 | -159.69020 | 35852 ft | 496 kts | 228° |
| 2026-05-06 12:10 | 2.69646 | -159.74078 | 35854 ft | 496 kts | 228° |
| 2026-05-06 12:10 | 2.64950 | -159.79132 | 35852 ft | 496 kts | 228° |
| 2026-05-06 12:11 | 2.60283 | -159.84156 | 35847 ft | 496 kts | 228° |
| 2026-05-06 12:11 | 2.55582 | -159.89215 | 35852 ft | 497 kts | 228° |
| 2026-05-06 12:12 | 2.50877 | -159.94277 | 35846 ft | 497 kts | 228° |
| 2026-05-06 12:12 | 2.46171 | -159.99340 | 35852 ft | 496 kts | 228° |
| 2026-05-06 12:13 | 2.41510 | -160.04353 | 35850 ft | 496 kts | 228° |
| 2026-05-06 12:13 | 2.36811 | -160.09407 | 35849 ft | 496 kts | 228° |
| 2026-05-06 12:14 | 2.32116 | -160.14458 | 35849 ft | 496 kts | 228° |
| 2026-05-06 12:14 | 2.27419 | -160.19509 | 35846 ft | 496 kts | 228° |
| 2026-05-06 12:15 | 2.22752 | -160.24527 | 35848 ft | 496 kts | 228° |
| 2026-05-06 12:15 | 2.18053 | -160.29579 | 35848 ft | 496 kts | 228° |
| 2026-05-06 12:16 | 2.13354 | -160.34631 | 35844 ft | 495 kts | 228° |
| 2026-05-06 12:16 | 2.08671 | -160.39665 | 35847 ft | 494 kts | 228° |
| 2026-05-06 12:17 | 2.04023 | -160.44661 | 35849 ft | 494 kts | 228° |
| 2026-05-06 12:17 | 1.99348 | -160.49686 | 35847 ft | 494 kts | 228° |
| 2026-05-06 12:18 | 1.94671 | -160.54713 | 35855 ft | 494 kts | 228° |
| 2026-05-06 12:18 | 1.89991 | -160.59742 | 35852 ft | 494 kts | 228° |
| 2026-05-06 12:19 | 1.85345 | -160.64735 | 35848 ft | 494 kts | 228° |
| 2026-05-06 12:19 | 1.80665 | -160.69763 | 35846 ft | 494 kts | 228° |
| 2026-05-06 12:20 | 1.75991 | -160.74784 | 35847 ft | 493 kts | 228° |
| 2026-05-06 12:20 | 1.71322 | -160.79799 | 35848 ft | 493 kts | 228° |
| 2026-05-06 12:21 | 1.66684 | -160.84781 | 35850 ft | 493 kts | 228° |
| 2026-05-06 12:21 | 1.62017 | -160.89794 | 35852 ft | 493 kts | 228° |
| 2026-05-06 12:22 | 1.57344 | -160.94814 | 35849 ft | 494 kts | 228° |
| 2026-05-06 12:22 | 1.52663 | -160.99841 | 35849 ft | 494 kts | 228° |
| 2026-05-06 12:23 | 1.47981 | -161.04869 | 35854 ft | 494 kts | 228° |
| 2026-05-06 12:23 | 1.43330 | -161.09862 | 35848 ft | 494 kts | 228° |
| 2026-05-06 12:24 | 1.38655 | -161.14882 | 35851 ft | 493 kts | 228° |
| 2026-05-06 12:24 | 1.33985 | -161.19896 | 35851 ft | 493 kts | 228° |
| 2026-05-06 12:25 | 1.29315 | -161.24910 | 35852 ft | 493 kts | 228° |
| 2026-05-06 12:25 | 1.24674 | -161.29892 | 35851 ft | 493 kts | 228° |
| 2026-05-06 12:26 | 1.20003 | -161.34906 | 35851 ft | 493 kts | 228° |
| 2026-05-06 12:26 | 1.15330 | -161.39922 | 35851 ft | 493 kts | 228° |
| 2026-05-06 12:27 | 1.10661 | -161.44934 | 35850 ft | 493 kts | 228° |
| 2026-05-06 12:27 | 1.06019 | -161.49916 | 35852 ft | 493 kts | 228° |
| 2026-05-06 12:28 | 1.01350 | -161.54927 | 35853 ft | 493 kts | 228° |
| 2026-05-06 12:28 | 0.96679 | -161.59940 | 35857 ft | 493 kts | 228° |
| 2026-05-06 12:29 | 0.92000 | -161.64961 | 35852 ft | 494 kts | 228° |
| 2026-05-06 12:29 | 0.87355 | -161.69946 | 35852 ft | 494 kts | 228° |
| 2026-05-06 12:30 | 0.82676 | -161.74967 | 35854 ft | 493 kts | 228° |
| 2026-05-06 12:30 | 0.77999 | -161.79985 | 35854 ft | 493 kts | 228° |
| 2026-05-06 12:31 | 0.73323 | -161.85003 | 35852 ft | 493 kts | 228° |
| 2026-05-06 12:31 | 0.68677 | -161.89987 | 35859 ft | 493 kts | 228° |
| 2026-05-06 12:32 | 0.63999 | -161.95006 | 35856 ft | 494 kts | 228° |
| 2026-05-06 12:32 | 0.59321 | -162.00026 | 35857 ft | 494 kts | 228° |
| 2026-05-06 12:33 | 0.54637 | -162.05051 | 35863 ft | 494 kts | 228° |
| 2026-05-06 12:33 | 0.49983 | -162.10044 | 35855 ft | 494 kts | 228° |
| 2026-05-06 12:34 | 0.45304 | -162.15063 | 35858 ft | 494 kts | 228° |
| 2026-05-06 12:34 | 0.40621 | -162.20087 | 35859 ft | 494 kts | 228° |
| 2026-05-06 12:35 | 0.35937 | -162.25112 | 35858 ft | 494 kts | 228° |
| 2026-05-06 12:35 | 0.31285 | -162.30103 | 35862 ft | 495 kts | 228° |
| 2026-05-06 12:36 | 0.26590 | -162.35139 | 35860 ft | 495 kts | 228° |
| 2026-05-06 12:36 | 0.21895 | -162.40176 | 35860 ft | 495 kts | 228° |
| 2026-05-06 12:37 | 0.17205 | -162.45206 | 35859 ft | 495 kts | 228° |
| 2026-05-06 12:37 | 0.12543 | -162.50208 | 35862 ft | 495 kts | 228° |
| 2026-05-06 12:38 | 0.07850 | -162.55241 | 35862 ft | 495 kts | 228° |
| 2026-05-06 12:38 | 0.03156 | -162.60277 | 35856 ft | 495 kts | 228° |
| 2026-05-06 12:39 | -0.01540 | -162.65314 | 35856 ft | 496 kts | 228° |
| 2026-05-06 12:39 | -0.06208 | -162.70322 | 35857 ft | 495 kts | 228° |
| 2026-05-06 12:40 | -0.10902 | -162.75357 | 35862 ft | 495 kts | 228° |
| 2026-05-06 12:40 | -0.15600 | -162.80397 | 35859 ft | 495 kts | 228° |
| 2026-05-06 12:41 | -0.20296 | -162.85433 | 35859 ft | 495 kts | 228° |
| 2026-05-06 12:41 | -0.24993 | -162.90473 | 35858 ft | 495 kts | 228° |
| 2026-05-06 12:42 | -0.29656 | -162.95475 | 35861 ft | 495 kts | 228° |
| 2026-05-06 12:42 | -0.34358 | -163.00519 | 35858 ft | 496 kts | 228° |
| 2026-05-06 12:43 | -0.39065 | -163.05568 | 35856 ft | 496 kts | 228° |
| 2026-05-06 12:43 | -0.43771 | -163.10617 | 35861 ft | 496 kts | 228° |
| 2026-05-06 12:44 | -0.48438 | -163.15623 | 35858 ft | 496 kts | 228° |
| 2026-05-06 12:44 | -0.53139 | -163.20667 | 35858 ft | 496 kts | 228° |
| 2026-05-06 12:45 | -0.57838 | -163.25708 | 35860 ft | 496 kts | 228° |
| 2026-05-06 12:46 | -0.64890 | -163.33274 | 35855 ft | 496 kts | 228° |
| 2026-05-06 12:46 | -0.69560 | -163.38285 | 35856 ft | 496 kts | 228° |
| 2026-05-06 12:47 | -0.74263 | -163.43331 | 35855 ft | 496 kts | 228° |
| 2026-05-06 12:47 | -0.78963 | -163.48375 | 35859 ft | 495 kts | 228° |
| 2026-05-06 12:48 | -0.83658 | -163.53412 | 35856 ft | 495 kts | 228° |
| 2026-05-06 12:48 | -0.88321 | -163.58416 | 35855 ft | 495 kts | 228° |
| 2026-05-06 12:49 | -0.93019 | -163.63457 | 35855 ft | 495 kts | 228° |
| 2026-05-06 12:49 | -0.97713 | -163.68494 | 35859 ft | 495 kts | 228° |
| 2026-05-06 12:50 | -1.02326 | -163.73446 | 35858 ft | 495 kts | 228° |
| 2026-05-06 12:50 | -1.06985 | -163.78446 | 35855 ft | 495 kts | 228° |
| 2026-05-06 12:51 | -1.11677 | -163.83482 | 35856 ft | 495 kts | 228° |
| 2026-05-06 12:51 | -1.16367 | -163.88516 | 35856 ft | 494 kts | 228° |
| 2026-05-06 12:52 | -1.21022 | -163.93513 | 35855 ft | 494 kts | 228° |
| 2026-05-06 12:52 | -1.25706 | -163.98542 | 35855 ft | 495 kts | 228° |
| 2026-05-06 12:53 | -1.30394 | -164.03577 | 35858 ft | 494 kts | 228° |
| 2026-05-06 12:53 | -1.35080 | -164.08603 | 35858 ft | 494 kts | 228° |
| 2026-05-06 12:54 | -1.39760 | -164.13624 | 35856 ft | 494 kts | 228° |
| 2026-05-06 12:54 | -1.44413 | -164.18617 | 35858 ft | 494 kts | 228° |
| 2026-05-06 12:55 | -1.49097 | -164.23645 | 35853 ft | 495 kts | 228° |
| 2026-05-06 12:55 | -1.53791 | -164.28683 | 35857 ft | 495 kts | 228° |
| 2026-05-06 12:56 | -1.58480 | -164.33717 | 35858 ft | 495 kts | 228° |
| 2026-05-06 12:56 | -1.63143 | -164.38723 | 35858 ft | 495 kts | 228° |
| 2026-05-06 12:57 | -1.67839 | -164.43764 | 35856 ft | 495 kts | 228° |
| 2026-05-06 12:57 | -1.72531 | -164.48802 | 35854 ft | 495 kts | 228° |
| 2026-05-06 12:58 | -1.77222 | -164.53840 | 35854 ft | 495 kts | 228° |
| 2026-05-06 12:58 | -1.81883 | -164.58845 | 35854 ft | 495 kts | 228° |
| 2026-05-06 12:59 | -1.86578 | -164.63887 | 35858 ft | 495 kts | 228° |
| 2026-05-06 12:59 | -1.91271 | -164.68928 | 35860 ft | 496 kts | 228° |
| 2026-05-06 13:00 | -1.95970 | -164.73975 | 35856 ft | 495 kts | 228° |
| 2026-05-06 13:00 | -2.00632 | -164.78983 | 35855 ft | 495 kts | 228° |
| 2026-05-06 13:01 | -2.05326 | -164.84026 | 35855 ft | 495 kts | 228° |
| 2026-05-06 13:01 | -2.10018 | -164.89068 | 35853 ft | 496 kts | 228° |
| 2026-05-06 13:02 | -2.14711 | -164.94111 | 35855 ft | 496 kts | 228° |
| 2026-05-06 13:02 | -2.19377 | -164.99124 | 35852 ft | 495 kts | 228° |
| 2026-05-06 13:03 | -2.24071 | -165.04170 | 35854 ft | 496 kts | 228° |
| 2026-05-06 13:03 | -2.28773 | -165.09224 | 35854 ft | 496 kts | 229° |
| 2026-05-06 13:04 | -2.33479 | -165.14282 | 35854 ft | 497 kts | 228° |
| 2026-05-06 13:04 | -2.38151 | -165.19305 | 35854 ft | 497 kts | 228° |
| 2026-05-06 13:05 | -2.42857 | -165.24366 | 35852 ft | 497 kts | 228° |
| 2026-05-06 13:05 | -2.47560 | -165.29422 | 35854 ft | 497 kts | 229° |
| 2026-05-06 13:06 | -2.52265 | -165.34483 | 35852 ft | 497 kts | 228° |
| 2026-05-06 13:06 | -2.56938 | -165.39509 | 35851 ft | 497 kts | 228° |
| 2026-05-06 13:07 | -2.61643 | -165.44569 | 35854 ft | 497 kts | 228° |
| 2026-05-06 13:07 | -2.66353 | -165.49637 | 35852 ft | 497 kts | 228° |
| 2026-05-06 13:08 | -2.71063 | -165.54704 | 35856 ft | 497 kts | 228° |
| 2026-05-06 13:08 | -2.75744 | -165.59742 | 35852 ft | 497 kts | 228° |
| 2026-05-06 13:09 | -2.80455 | -165.64811 | 35858 ft | 497 kts | 228° |
| 2026-05-06 13:09 | -2.85166 | -165.69883 | 35853 ft | 497 kts | 228° |
| 2026-05-06 13:10 | -2.89876 | -165.74953 | 35854 ft | 497 kts | 228° |
| 2026-05-06 13:10 | -2.94551 | -165.79986 | 35853 ft | 497 kts | 228° |
| 2026-05-06 13:11 | -2.99260 | -165.85056 | 35855 ft | 497 kts | 228° |
| 2026-05-06 13:11 | -3.03967 | -165.90125 | 35854 ft | 497 kts | 228° |
| 2026-05-06 13:12 | -3.07876 | -165.94335 | 35855 ft | 497 kts | 228° |
| 2026-05-06 13:12 | -3.13347 | -166.00228 | 35851 ft | 497 kts | 229° |
| 2026-05-06 13:13 | -3.18047 | -166.05293 | 35851 ft | 497 kts | 229° |
| 2026-05-06 13:13 | -3.22751 | -166.10361 | 35852 ft | 497 kts | 228° |
| 2026-05-06 13:14 | -3.26662 | -166.14576 | 35851 ft | 497 kts | 229° |
| 2026-05-06 13:14 | -3.32126 | -166.20465 | 35853 ft | 497 kts | 229° |
| 2026-05-06 13:15 | -3.36828 | -166.25534 | 35853 ft | 497 kts | 229° |
| 2026-05-06 13:15 | -3.40737 | -166.29748 | 35854 ft | 497 kts | 229° |
| 2026-05-06 13:16 | -3.45438 | -166.34817 | 35856 ft | 497 kts | 229° |
| 2026-05-06 13:16 | -3.50138 | -166.39886 | 35854 ft | 497 kts | 229° |
| 2026-05-06 13:17 | -3.54840 | -166.44958 | 35852 ft | 497 kts | 229° |
| 2026-05-06 13:17 | -3.59511 | -166.49996 | 35851 ft | 497 kts | 229° |
| 2026-05-06 13:18 | -3.64207 | -166.55064 | 35854 ft | 496 kts | 229° |
| 2026-05-06 13:18 | -3.68898 | -166.60125 | 35854 ft | 496 kts | 229° |
| 2026-05-06 13:19 | -3.73589 | -166.65189 | 35850 ft | 495 kts | 229° |
| 2026-05-06 13:19 | -3.78238 | -166.70208 | 35851 ft | 495 kts | 229° |
| 2026-05-06 13:20 | -3.82922 | -166.75265 | 35851 ft | 495 kts | 229° |
| 2026-05-06 13:20 | -3.87599 | -166.80316 | 35851 ft | 495 kts | 229° |
| 2026-05-06 13:21 | -3.92280 | -166.85372 | 35855 ft | 495 kts | 229° |
| 2026-05-06 13:21 | -3.96926 | -166.90390 | 35853 ft | 494 kts | 229° |
| 2026-05-06 13:22 | -4.01590 | -166.95429 | 35854 ft | 493 kts | 229° |
| 2026-05-06 13:22 | -4.06251 | -167.00467 | 35854 ft | 493 kts | 229° |
| 2026-05-06 13:23 | -4.10911 | -167.05504 | 35854 ft | 493 kts | 230° |
| 2026-05-06 13:23 | -4.15567 | -167.10537 | 35853 ft | 492 kts | 230° |
| 2026-05-06 13:24 | -4.20192 | -167.15538 | 35849 ft | 492 kts | 230° |
| 2026-05-06 13:24 | -4.24847 | -167.20572 | 35850 ft | 492 kts | 230° |
| 2026-05-06 13:25 | -4.29499 | -167.25605 | 35852 ft | 492 kts | 230° |
| 2026-05-06 13:25 | -4.34145 | -167.30631 | 35853 ft | 491 kts | 230° |
| 2026-05-06 13:26 | -4.38759 | -167.35624 | 35854 ft | 491 kts | 230° |
| 2026-05-06 13:26 | -4.43402 | -167.40650 | 35854 ft | 491 kts | 230° |
| 2026-05-06 13:27 | -4.48045 | -167.45675 | 35855 ft | 491 kts | 230° |
| 2026-05-06 13:27 | -4.52690 | -167.50704 | 35853 ft | 492 kts | 230° |
| 2026-05-06 13:28 | -4.57305 | -167.55703 | 35850 ft | 492 kts | 230° |
| 2026-05-06 13:28 | -4.61947 | -167.60731 | 35855 ft | 492 kts | 230° |
| 2026-05-06 13:29 | -4.66592 | -167.65763 | 35855 ft | 491 kts | 230° |
| 2026-05-06 13:29 | -4.71232 | -167.70791 | 35853 ft | 491 kts | 230° |
| 2026-05-06 13:30 | -4.75842 | -167.75788 | 35853 ft | 491 kts | 230° |
| 2026-05-06 13:30 | -4.80480 | -167.80816 | 35854 ft | 491 kts | 230° |
| 2026-05-06 13:31 | -4.85119 | -167.85846 | 35854 ft | 491 kts | 230° |
| 2026-05-06 13:31 | -4.89759 | -167.90879 | 35855 ft | 492 kts | 230° |
| 2026-05-06 13:32 | -4.94372 | -167.95883 | 35859 ft | 492 kts | 230° |
| 2026-05-06 13:32 | -4.99010 | -168.00916 | 35856 ft | 491 kts | 230° |
| 2026-05-06 13:33 | -5.03649 | -168.05956 | 35857 ft | 491 kts | 230° |
| 2026-05-06 13:33 | -5.08285 | -168.10992 | 35857 ft | 491 kts | 230° |
| 2026-05-06 13:34 | -5.12889 | -168.15994 | 35857 ft | 491 kts | 230° |
| 2026-05-06 13:34 | -5.17524 | -168.21032 | 35857 ft | 491 kts | 230° |
| 2026-05-06 13:35 | -5.22159 | -168.26071 | 35860 ft | 491 kts | 230° |
| 2026-05-06 13:35 | -5.26793 | -168.31111 | 35860 ft | 491 kts | 230° |
| 2026-05-06 13:36 | -5.31397 | -168.36119 | 35860 ft | 492 kts | 230° |
| 2026-05-06 13:36 | -5.36031 | -168.41162 | 35859 ft | 492 kts | 230° |
| 2026-05-06 13:37 | -5.40668 | -168.46208 | 35861 ft | 492 kts | 230° |
| 2026-05-06 13:37 | -5.45300 | -168.51250 | 35860 ft | 491 kts | 230° |
| 2026-05-06 13:38 | -5.49904 | -168.56263 | 35859 ft | 491 kts | 230° |
| 2026-05-06 13:38 | -5.54537 | -168.61309 | 35860 ft | 491 kts | 230° |
| 2026-05-06 13:39 | -5.59170 | -168.66356 | 35858 ft | 491 kts | 230° |
| 2026-05-06 13:39 | -5.63803 | -168.71404 | 35859 ft | 491 kts | 230° |
| 2026-05-06 13:40 | -5.68398 | -168.76413 | 35856 ft | 491 kts | 230° |
| 2026-05-06 13:40 | -5.73027 | -168.81459 | 35856 ft | 491 kts | 230° |
| 2026-05-06 13:41 | -5.77655 | -168.86506 | 35856 ft | 491 kts | 230° |
| 2026-05-06 13:41 | -5.82285 | -168.91556 | 35857 ft | 491 kts | 230° |
| 2026-05-06 13:42 | -5.86881 | -168.96570 | 35858 ft | 491 kts | 230° |
| 2026-05-06 13:42 | -5.91507 | -169.01620 | 35860 ft | 491 kts | 230° |
| 2026-05-06 13:43 | -5.96133 | -169.06669 | 35861 ft | 491 kts | 230° |
| 2026-05-06 13:43 | -6.00760 | -169.11721 | 35859 ft | 491 kts | 230° |
| 2026-05-06 13:44 | -6.05350 | -169.16734 | 35859 ft | 491 kts | 230° |
| 2026-05-06 13:44 | -6.09965 | -169.21777 | 35859 ft | 491 kts | 230° |
| 2026-05-06 13:45 | -6.14588 | -169.26829 | 35856 ft | 491 kts | 230° |
| 2026-05-06 13:45 | -6.21483 | -169.34366 | 35856 ft | 491 kts | 230° |
| 2026-05-06 13:46 | -6.26100 | -169.39415 | 35856 ft | 491 kts | 230° |
| 2026-05-06 13:46 | -6.30719 | -169.44468 | 35855 ft | 490 kts | 230° |
| 2026-05-06 13:47 | -6.35252 | -169.49428 | 35856 ft | 489 kts | 230° |
| 2026-05-06 13:47 | -6.39854 | -169.54464 | 35856 ft | 489 kts | 230° |
| 2026-05-06 13:48 | -6.44424 | -169.59468 | 35856 ft | 489 kts | 230° |
| 2026-05-06 13:48 | -6.49023 | -169.64504 | 35856 ft | 489 kts | 230° |
| 2026-05-06 13:49 | -6.53624 | -169.69545 | 35856 ft | 489 kts | 230° |
| 2026-05-06 13:49 | -6.58224 | -169.74585 | 35856 ft | 489 kts | 230° |
| 2026-05-06 13:50 | -6.62789 | -169.79589 | 35856 ft | 489 kts | 230° |
| 2026-05-06 13:50 | -6.67388 | -169.84631 | 35856 ft | 489 kts | 230° |
| 2026-05-06 13:51 | -6.71980 | -169.89668 | 35856 ft | 489 kts | 230° |
| 2026-05-06 13:51 | -6.76545 | -169.94675 | 35857 ft | 489 kts | 230° |
| 2026-05-06 13:52 | -6.81137 | -169.99715 | 35856 ft | 489 kts | 230° |
| 2026-05-06 13:52 | -6.85732 | -170.04759 | 35856 ft | 489 kts | 230° |
| 2026-05-06 13:53 | -6.90322 | -170.09800 | 35856 ft | 489 kts | 230° |
| 2026-05-06 13:53 | -6.94917 | -170.14847 | 35856 ft | 489 kts | 230° |
| 2026-05-06 13:54 | -6.99478 | -170.19858 | 35856 ft | 489 kts | 231° |
| 2026-05-06 13:54 | -7.04070 | -170.24905 | 35856 ft | 489 kts | 231° |
| 2026-05-06 13:55 | -7.08658 | -170.29950 | 35856 ft | 489 kts | 231° |
| 2026-05-06 13:55 | -7.13221 | -170.34967 | 35856 ft | 489 kts | 231° |
| 2026-05-06 13:56 | -7.17809 | -170.40016 | 35856 ft | 489 kts | 231° |
| 2026-05-06 13:56 | -7.22396 | -170.45064 | 35856 ft | 489 kts | 231° |
| 2026-05-06 13:57 | -7.26982 | -170.50112 | 35856 ft | 489 kts | 231° |
| 2026-05-06 13:57 | -7.31542 | -170.55133 | 35857 ft | 489 kts | 231° |
| 2026-05-06 13:58 | -7.36126 | -170.60182 | 35856 ft | 488 kts | 231° |
| 2026-05-06 13:58 | -7.40706 | -170.65230 | 35856 ft | 488 kts | 231° |
| 2026-05-06 13:59 | -7.45286 | -170.70279 | 35856 ft | 488 kts | 231° |
| 2026-05-06 13:59 | -7.49837 | -170.75297 | 35857 ft | 488 kts | 231° |
| 2026-05-06 14:00 | -7.54410 | -170.80340 | 35859 ft | 488 kts | 231° |
| 2026-05-06 14:00 | -7.58985 | -170.85388 | 35859 ft | 487 kts | 231° |
| 2026-05-06 14:01 | -7.63558 | -170.90437 | 35856 ft | 487 kts | 231° |
| 2026-05-06 14:01 | -7.68129 | -170.95483 | 35856 ft | 487 kts | 231° |
| 2026-05-06 14:02 | -7.72666 | -171.00495 | 35855 ft | 487 kts | 231° |
| 2026-05-06 14:02 | -7.77229 | -171.05536 | 35857 ft | 487 kts | 231° |
| 2026-05-06 14:03 | -7.81796 | -171.10584 | 35857 ft | 487 kts | 231° |
| 2026-05-06 14:03 | -7.86361 | -171.15632 | 35856 ft | 487 kts | 231° |
| 2026-05-06 14:04 | -7.90891 | -171.20642 | 35857 ft | 486 kts | 231° |
| 2026-05-06 14:04 | -7.95447 | -171.25683 | 35857 ft | 486 kts | 231° |
| 2026-05-06 14:05 | -8.00001 | -171.30724 | 35857 ft | 486 kts | 232° |
| 2026-05-06 14:05 | -8.04556 | -171.35768 | 35855 ft | 486 kts | 232° |
| 2026-05-06 14:06 | -8.09078 | -171.40777 | 35853 ft | 486 kts | 232° |
| 2026-05-06 14:06 | -8.13629 | -171.45819 | 35857 ft | 486 kts | 232° |
| 2026-05-06 14:07 | -8.18179 | -171.50864 | 35857 ft | 486 kts | 232° |
| 2026-05-06 14:07 | -8.22728 | -171.55907 | 35857 ft | 486 kts | 232° |
| 2026-05-06 14:08 | -8.27246 | -171.60919 | 35854 ft | 486 kts | 232° |
| 2026-05-06 14:08 | -8.31795 | -171.65966 | 35857 ft | 486 kts | 232° |
| 2026-05-06 14:09 | -8.36344 | -171.71017 | 35857 ft | 486 kts | 232° |
| 2026-05-06 14:09 | -8.40893 | -171.76068 | 35856 ft | 486 kts | 232° |
| 2026-05-06 14:10 | -8.45411 | -171.81088 | 35860 ft | 486 kts | 232° |
| 2026-05-06 14:10 | -8.49958 | -171.86141 | 35857 ft | 486 kts | 232° |
| 2026-05-06 14:11 | -8.54502 | -171.91193 | 35858 ft | 486 kts | 232° |
| 2026-05-06 14:11 | -8.59048 | -171.96249 | 35860 ft | 486 kts | 232° |
| 2026-05-06 14:12 | -8.63562 | -172.01271 | 35873 ft | 486 kts | 232° |
| 2026-05-06 14:12 | -8.68102 | -172.06324 | 35862 ft | 485 kts | 232° |
| 2026-05-06 14:13 | -8.72635 | -172.11371 | 35861 ft | 485 kts | 232° |
| 2026-05-06 14:13 | -8.77165 | -172.16418 | 35862 ft | 485 kts | 232° |
| 2026-05-06 14:14 | -8.81694 | -172.21465 | 35862 ft | 485 kts | 232° |
| 2026-05-06 14:14 | -8.86190 | -172.26478 | 35864 ft | 485 kts | 232° |
| 2026-05-06 14:15 | -8.90719 | -172.31528 | 35864 ft | 485 kts | 232° |
| 2026-05-06 14:15 | -8.95244 | -172.36577 | 35864 ft | 485 kts | 232° |
| 2026-05-06 14:16 | -8.99740 | -172.41595 | 35860 ft | 484 kts | 232° |
| 2026-05-06 14:16 | -9.04263 | -172.46645 | 35862 ft | 484 kts | 232° |
| 2026-05-06 14:17 | -9.08782 | -172.51692 | 35862 ft | 484 kts | 232° |
| 2026-05-06 14:17 | -9.13302 | -172.56744 | 35862 ft | 484 kts | 232° |
| 2026-05-06 14:18 | -9.17790 | -172.61761 | 35861 ft | 484 kts | 232° |
| 2026-05-06 14:18 | -9.22306 | -172.66812 | 35862 ft | 484 kts | 232° |
| 2026-05-06 14:19 | -9.26825 | -172.71867 | 35862 ft | 484 kts | 232° |
| 2026-05-06 14:19 | -9.31339 | -172.76920 | 35862 ft | 484 kts | 232° |
| 2026-05-06 14:20 | -9.35855 | -172.81977 | 35865 ft | 484 kts | 231° |
| 2026-05-06 14:20 | -9.40335 | -172.86996 | 35869 ft | 483 kts | 231° |
| 2026-05-06 14:21 | -9.44830 | -172.92033 | 35864 ft | 482 kts | 231° |
| 2026-05-06 14:21 | -9.47076 | -172.94552 | 36035 ft | 480 kts | 231° |
| 2026-05-06 14:21 | -9.49306 | -172.97051 | 36351 ft | 477 kts | 231° |
| 2026-05-06 14:22 | -9.51527 | -172.99539 | 36632 ft | 474 kts | 231° |
| 2026-05-06 14:22 | -9.53734 | -173.02009 | 36850 ft | 473 kts | 231° |
| 2026-05-06 14:22 | -9.55906 | -173.04443 | 37050 ft | 472 kts | 231° |
| 2026-05-06 14:22 | -9.58105 | -173.06907 | 37242 ft | 471 kts | 231° |
| 2026-05-06 14:23 | -9.60300 | -173.09368 | 37418 ft | 470 kts | 231° |
| 2026-05-06 14:23 | -9.62489 | -173.11823 | 37598 ft | 469 kts | 231° |
| 2026-05-06 14:23 | -9.64674 | -173.14275 | 37758 ft | 468 kts | 231° |
| 2026-05-06 14:23 | -9.66858 | -173.16725 | 37862 ft | 469 kts | 231° |
| 2026-05-06 14:24 | -9.71217 | -173.21620 | 37861 ft | 471 kts | 231° |
| 2026-05-06 14:24 | -9.75608 | -173.26549 | 37858 ft | 471 kts | 231° |
| 2026-05-06 14:25 | -9.79991 | -173.31473 | 37858 ft | 470 kts | 231° |
| 2026-05-06 14:25 | -9.84367 | -173.36389 | 37866 ft | 470 kts | 231° |
| 2026-05-06 14:26 | -9.88712 | -173.41275 | 37870 ft | 469 kts | 231° |
| 2026-05-06 14:26 | -9.93084 | -173.46192 | 37870 ft | 469 kts | 231° |
| 2026-05-06 14:27 | -9.97454 | -173.51109 | 37865 ft | 469 kts | 231° |
| 2026-05-06 14:27 | -10.01827 | -173.56031 | 37859 ft | 469 kts | 231° |
| 2026-05-06 14:28 | -10.06160 | -173.60911 | 37861 ft | 469 kts | 231° |
| 2026-05-06 14:28 | -10.10524 | -173.65828 | 37870 ft | 469 kts | 231° |
| 2026-05-06 14:29 | -10.14887 | -173.70746 | 37877 ft | 469 kts | 231° |
| 2026-05-06 14:29 | -10.19244 | -173.75659 | 37861 ft | 468 kts | 231° |
| 2026-05-06 14:30 | -10.23571 | -173.80540 | 37863 ft | 468 kts | 231° |
| 2026-05-06 14:30 | -10.27928 | -173.85458 | 37878 ft | 468 kts | 231° |
| 2026-05-06 14:31 | -10.32280 | -173.90372 | 37866 ft | 468 kts | 231° |
| 2026-05-06 14:31 | -10.36632 | -173.95287 | 37866 ft | 468 kts | 231° |
| 2026-05-06 14:32 | -10.40947 | -174.00165 | 37875 ft | 467 kts | 231° |
| 2026-05-06 14:32 | -10.45291 | -174.05076 | 37864 ft | 467 kts | 231° |
| 2026-05-06 14:33 | -10.49632 | -174.09987 | 37866 ft | 467 kts | 231° |
| 2026-05-06 14:33 | -10.53975 | -174.14901 | 37868 ft | 467 kts | 231° |
| 2026-05-06 14:34 | -10.58284 | -174.19780 | 37867 ft | 467 kts | 231° |
| 2026-05-06 14:34 | -10.62625 | -174.24698 | 37868 ft | 467 kts | 231° |
| 2026-05-06 14:35 | -10.66963 | -174.29614 | 37868 ft | 467 kts | 231° |
| 2026-05-06 14:35 | -10.71299 | -174.34530 | 37865 ft | 466 kts | 231° |
| 2026-05-06 14:36 | -10.75601 | -174.39409 | 37870 ft | 466 kts | 231° |
| 2026-05-06 14:36 | -10.79927 | -174.44318 | 37870 ft | 466 kts | 231° |
| 2026-05-06 14:37 | -10.84254 | -174.49231 | 37870 ft | 466 kts | 231° |
| 2026-05-06 14:37 | -10.88584 | -174.54149 | 37870 ft | 466 kts | 231° |
| 2026-05-06 14:38 | -10.92879 | -174.59031 | 37870 ft | 466 kts | 231° |
| 2026-05-06 14:38 | -10.97202 | -174.63945 | 37871 ft | 466 kts | 231° |
| 2026-05-06 14:39 | -11.01525 | -174.68863 | 37870 ft | 466 kts | 231° |
| 2026-05-06 14:39 | -11.05842 | -174.73776 | 37871 ft | 465 kts | 231° |
| 2026-05-06 14:40 | -11.10127 | -174.78655 | 37868 ft | 465 kts | 231° |
| 2026-05-06 14:40 | -11.14439 | -174.83566 | 37867 ft | 465 kts | 231° |
| 2026-05-06 14:41 | -11.18749 | -174.88479 | 37868 ft | 465 kts | 231° |
| 2026-05-06 14:41 | -11.23063 | -174.93397 | 37867 ft | 465 kts | 231° |
| 2026-05-06 14:42 | -11.27343 | -174.98280 | 37870 ft | 465 kts | 231° |
| 2026-05-06 14:42 | -11.31651 | -175.03197 | 37867 ft | 465 kts | 231° |
| 2026-05-06 14:43 | -11.35959 | -175.08116 | 37867 ft | 464 kts | 231° |
| 2026-05-06 14:43 | -11.40256 | -175.13025 | 37868 ft | 464 kts | 231° |
| 2026-05-06 14:44 | -11.44523 | -175.17902 | 37868 ft | 464 kts | 231° |
| 2026-05-06 14:45 | -11.50959 | -175.25264 | 37867 ft | 464 kts | 231° |
| 2026-05-06 14:45 | -11.55253 | -175.30178 | 37867 ft | 464 kts | 231° |
| 2026-05-06 14:46 | -11.59447 | -175.34979 | 37867 ft | 464 kts | 231° |
| 2026-05-06 14:46 | -11.63738 | -175.39895 | 37867 ft | 464 kts | 231° |
| 2026-05-06 14:47 | -11.68042 | -175.44829 | 37867 ft | 463 kts | 231° |
| 2026-05-06 14:47 | -11.72323 | -175.49737 | 37868 ft | 463 kts | 231° |
| 2026-05-06 14:48 | -11.76600 | -175.54644 | 37867 ft | 463 kts | 231° |
| 2026-05-06 14:48 | -11.80875 | -175.59551 | 37864 ft | 463 kts | 231° |
| 2026-05-06 14:49 | -11.85123 | -175.64430 | 37866 ft | 463 kts | 231° |
| 2026-05-06 14:49 | -11.89398 | -175.69342 | 37867 ft | 463 kts | 231° |
| 2026-05-06 14:50 | -11.93673 | -175.74257 | 37862 ft | 463 kts | 231° |
| 2026-05-06 14:50 | -11.97946 | -175.79171 | 37865 ft | 463 kts | 231° |
| 2026-05-06 14:51 | -12.02188 | -175.84054 | 37869 ft | 463 kts | 231° |
| 2026-05-06 14:51 | -12.06456 | -175.88968 | 37864 ft | 463 kts | 231° |
| 2026-05-06 14:52 | -12.10740 | -175.93903 | 37865 ft | 463 kts | 231° |
| 2026-05-06 14:52 | -12.15016 | -175.98832 | 37864 ft | 464 kts | 231° |
| 2026-05-06 14:53 | -12.19261 | -176.03727 | 37866 ft | 464 kts | 231° |
| 2026-05-06 14:53 | -12.23540 | -176.08664 | 37864 ft | 463 kts | 231° |
| 2026-05-06 14:54 | -12.27812 | -176.13595 | 37863 ft | 463 kts | 231° |
| 2026-05-06 14:54 | -12.32084 | -176.18531 | 37867 ft | 463 kts | 230° |
| 2026-05-06 14:55 | -12.36328 | -176.23435 | 37866 ft | 464 kts | 230° |
| 2026-05-06 14:55 | -12.40602 | -176.28377 | 37864 ft | 464 kts | 230° |
| 2026-05-06 14:56 | -12.44884 | -176.33331 | 37863 ft | 465 kts | 230° |
| 2026-05-06 14:56 | -12.49171 | -176.38294 | 37860 ft | 465 kts | 230° |
| 2026-05-06 14:57 | -12.53426 | -176.43220 | 37861 ft | 465 kts | 230° |